Observation data for Doole 3WNW on 11/07/2019      Previous  Date       Current Mesonet Observations  Soil Data  Daily Summary Page  Observations in Plain Language
KDO2 070600Z 14010KT 21/17 A3009 RMK A01 T02130169  RH  076%=      5-min Rain = 0
KDO2 070601Z 14010KT 21/17 A3009 RMK A01 T02130169  RH  076%=      5-min Rain = 0
KDO2 070602Z 14009KT 21/17 A3009 RMK A01 T02120169  RH  076%=      5-min Rain = 0
KDO2 070603Z 15010KT 21/17 A3009 RMK A01 T02120169  RH  076%=      5-min Rain = 0
KDO2 070604Z 15010KT 21/17 A3009 RMK A01 T02120169  RH  076%=      5-min Rain = 0
KDO2 070605Z 15010KT 21/17 A3009 RMK A01 T02120169  RH  076%=      5-min Rain = 0
KDO2 070606Z 15011KT 21/17 A3009 RMK A01 T02120169  RH  076%=      5-min Rain = 0
KDO2 070607Z 15011KT 21/17 A3009 RMK A01 T02120169  RH  076%=      5-min Rain = 0
KDO2 070608Z 15010KT 21/17 A3009 RMK A01 T02110168  RH  076%=      5-min Rain = 0
KDO2 070609Z 15011KT 21/17 A3009 RMK A01 T02110168  RH  077%=      5-min Rain = 0
KDO2 070610Z 15013KT 21/17 A3009 RMK A01 T02110168  RH  077%=      5-min Rain = 0
KDO2 070611Z 15012KT 21/17 A3009 RMK A01 T02110168  RH  077%=      5-min Rain = 0
KDO2 070612Z 14012KT 21/17 A3009 RMK A01 T02110168  RH  077%=      5-min Rain = 0
KDO2 070613Z 15011KT 21/17 A3009 RMK A01 T02110168  RH  077%=      5-min Rain = 0
KDO2 070614Z 15011KT 21/17 A3009 RMK A01 T02100168  RH  077%=      5-min Rain = 0
KDO2 070615Z 15010KT 21/17 A3009 RMK A01 T02100168  RH  077%=      5-min Rain = 0
KDO2 070616Z 15011KT 21/17 A3009 RMK A01 T02100168  RH  077%=      5-min Rain = 0
KDO2 070617Z 15011KT 21/17 A3009 RMK A01 T02100168  RH  077%=      5-min Rain = 0
KDO2 070618Z 15009KT 21/17 A3009 RMK A01 T02100168  RH  077%=      5-min Rain = 0
KDO2 070619Z 15011KT 21/17 A3009 RMK A01 T02100168  RH  077%=      5-min Rain = 0
KDO2 070620Z 15011KT 21/17 A3009 RMK A01 T02090168  RH  077%=      5-min Rain = 0
KDO2 070621Z 15011KT 21/17 A3009 RMK A01 T02090168  RH  077%=      5-min Rain = 0
KDO2 070622Z 15010KT 21/17 A3009 RMK A01 T02100168  RH  077%=      5-min Rain = 0
KDO2 070623Z 15011KT 21/17 A3009 RMK A01 T02090168  RH  077%=      5-min Rain = 0
KDO2 070624Z 15009KT 21/17 A3009 RMK A01 T02100168  RH  077%=      5-min Rain = 0
KDO2 070625Z 15010KT 21/17 A3009 RMK A01 T02090168  RH  077%=      5-min Rain = 0
KDO2 070626Z 15009KT 21/17 A3009 RMK A01 T02090168  RH  077%=      5-min Rain = 0
KDO2 070627Z 16010KT 21/17 A3009 RMK A01 T02090168  RH  077%=      5-min Rain = 0
KDO2 070628Z 15008KT 21/17 A3009 RMK A01 T02090168  RH  077%=      5-min Rain = 0
KDO2 070629Z 15009KT 21/17 A3009 RMK A01 T02080168  RH  078%=      5-min Rain = 0
KDO2 070630Z 15010KT 21/17 A3009 RMK A01 T02080168  RH  078%=      5-min Rain = 0
KDO2 070631Z 15009KT 21/17 A3009 RMK A01 T02080168  RH  078%=      5-min Rain = 0
KDO2 070632Z 16010KT 21/17 A3009 RMK A01 T02080168  RH  078%=      5-min Rain = 0
KDO2 070633Z 15009KT 21/17 A3009 RMK A01 T02080168  RH  078%=      5-min Rain = 0
KDO2 070634Z 15009KT 21/17 A3009 RMK A01 T02080168  RH  078%=      5-min Rain = 0
KDO2 070635Z 15010KT 21/17 A3009 RMK A01 T02080168  RH  078%=      5-min Rain = 0
KDO2 070636Z 15010KT 21/17 A3009 RMK A01 T02070168  RH  078%=      5-min Rain = 0
KDO2 070637Z 15009KT 21/17 A3009 RMK A01 T02080168  RH  078%=      5-min Rain = 0
KDO2 070638Z 15009KT 21/17 A3009 RMK A01 T02070167  RH  078%=      5-min Rain = 0
KDO2 070639Z 15008KT 21/17 A3009 RMK A01 T02070168  RH  078%=      5-min Rain = 0
KDO2 070640Z 15010KT 21/17 A3009 RMK A01 T02070167  RH  078%=      5-min Rain = 0
KDO2 070641Z 16010KT 21/17 A3009 RMK A01 T02070167  RH  078%=      5-min Rain = 0
KDO2 070642Z 15010KT 21/17 A3009 RMK A01 T02070168  RH  078%=      5-min Rain = 0
KDO2 070643Z 16009G14KT 21/17 A3009 RMK A01 T02070167  RH  078%=      5-min Rain = 0
KDO2 070644Z 16012KT 21/17 A3009 RMK A01 T02070168  RH  078%=      5-min Rain = 0
KDO2 070645Z 16011KT 21/17 A3009 RMK A01 T02070168  RH  078%=      5-min Rain = 0
KDO2 070646Z 16011KT 21/17 A3009 RMK A01 T02070167  RH  078%=      5-min Rain = 0
KDO2 070647Z 15009KT 21/17 A3009 RMK A01 T02070167  RH  078%=      5-min Rain = 0
KDO2 070648Z 15009KT 21/17 A3009 RMK A01 T02070168  RH  078%=      5-min Rain = 0
KDO2 070649Z 16010KT 21/17 A3009 RMK A01 T02060167  RH  078%=      5-min Rain = 0
KDO2 070650Z 15009KT 21/17 A3009 RMK A01 T02060168  RH  078%=      5-min Rain = 0
KDO2 070651Z 15008KT 21/17 A3009 RMK A01 T02060167  RH  078%=      5-min Rain = 0
KDO2 070652Z 15011KT 21/17 A3009 RMK A01 T02060167  RH  079%=      5-min Rain = 0
KDO2 070653Z 16010KT 21/17 A3009 RMK A01 T02060167  RH  079%=      5-min Rain = 0
KDO2 070654Z 16008KT 21/17 A3009 RMK A01 T02060167  RH  079%=      5-min Rain = 0
KDO2 070655Z 16010KT 21/17 A3009 RMK A01 T02060168  RH  079%=      5-min Rain = 0
KDO2 070656Z 16009KT 21/17 A3009 RMK A01 T02060168  RH  079%=      5-min Rain = 0
KDO2 070657Z 16009KT 21/17 A3009 RMK A01 T02050167  RH  079%=      5-min Rain = 0
KDO2 070658Z 16009KT 21/17 A3009 RMK A01 T02050167  RH  079%=      5-min Rain = 0
KDO2 070659Z 15010KT 21/17 A3009 RMK A01 T02050167  RH  079%=      5-min Rain = 0
KDO2 070700Z 16009KT 21/17 A3009 RMK A01 T02050168  RH  079%=      5-min Rain = 0
KDO2 070701Z 16011KT 21/17 A3009 RMK A01 T02050168  RH  079%=      5-min Rain = 0
KDO2 070702Z 16010KT 21/17 A3009 RMK A01 T02060168  RH  079%=      5-min Rain = 0
KDO2 070703Z 16011KT 21/17 A3009 RMK A01 T02050167  RH  079%=      5-min Rain = 0
KDO2 070704Z 16009KT 21/17 A3009 RMK A01 T02050167  RH  079%=      5-min Rain = 0
KDO2 070705Z 16011G16KT 21/17 A3009 RMK A01 T02050167  RH  079%=      5-min Rain = 0
KDO2 070706Z 16011KT 21/17 A3009 RMK A01 T02050167  RH  079%=      5-min Rain = 0
KDO2 070707Z 16009KT 21/17 A3009 RMK A01 T02050167  RH  079%=      5-min Rain = 0
KDO2 070708Z 16010KT 21/17 A3009 RMK A01 T02050167  RH  079%=      5-min Rain = 0
KDO2 070709Z 16010KT 21/17 A3009 RMK A01 T02050167  RH  079%=      5-min Rain = 0
KDO2 070710Z 16010G15KT 21/17 A3009 RMK A01 T02050167  RH  079%=      5-min Rain = 0
KDO2 070711Z 16011KT 20/17 A3009 RMK A01 T02040167  RH  079%=      5-min Rain = 0
KDO2 070712Z 16010KT 20/17 A3009 RMK A01 T02040167  RH  079%=      5-min Rain = 0
KDO2 070713Z 16011KT 20/17 A3009 RMK A01 T02040167  RH  079%=      5-min Rain = 0
KDO2 070714Z 16010KT 20/17 A3009 RMK A01 T02040167  RH  079%=      5-min Rain = 0
KDO2 070715Z 16009KT 20/17 A3009 RMK A01 T02040167  RH  079%=      5-min Rain = 0
KDO2 070716Z 16011KT 20/17 A3009 RMK A01 T02040167  RH  079%=      5-min Rain = 0
KDO2 070717Z 16012KT 20/17 A3009 RMK A01 T02040167  RH  079%=      5-min Rain = 0
KDO2 070718Z 16012KT 20/17 A3009 RMK A01 T02040167  RH  079%=      5-min Rain = 0
KDO2 070719Z 16010KT 20/17 A3009 RMK A01 T02040167  RH  079%=      5-min Rain = 0
KDO2 070720Z 16011KT 20/17 A3009 RMK A01 T02040167  RH  079%=      5-min Rain = 0
KDO2 070721Z 16010KT 20/17 A3009 RMK A01 T02040167  RH  079%=      5-min Rain = 0
KDO2 070722Z 16011KT 20/17 A3009 RMK A01 T02040167  RH  079%=      5-min Rain = 0
KDO2 070723Z 16011KT 20/17 A3009 RMK A01 T02030167  RH  079%=      5-min Rain = 0
KDO2 070724Z 16012KT 20/17 A3009 RMK A01 T02030167  RH  079%=      5-min Rain = 0
KDO2 070725Z 16011KT 20/17 A3009 RMK A01 T02040167  RH  080%=      5-min Rain = 0
KDO2 070726Z 16011KT 20/17 A3009 RMK A01 T02030167  RH  080%=      5-min Rain = 0
KDO2 070727Z 17012KT 20/17 A3009 RMK A01 T02030167  RH  080%=      5-min Rain = 0
KDO2 070728Z 16010KT 20/17 A3009 RMK A01 T02030167  RH  080%=      5-min Rain = 0
KDO2 070729Z 16012KT 20/17 A3009 RMK A01 T02030166  RH  080%=      5-min Rain = 0
KDO2 070730Z 17008KT 20/17 A3009 RMK A01 T02030167  RH  080%=      5-min Rain = 0
KDO2 070731Z 17009KT 20/17 A3009 RMK A01 T02030167  RH  080%=      5-min Rain = 0
KDO2 070732Z 17009KT 20/17 A3009 RMK A01 T02030167  RH  080%=      5-min Rain = 0
KDO2 070733Z 17010KT 20/17 A3009 RMK A01 T02030167  RH  080%=      5-min Rain = 0
KDO2 070734Z 16008KT 20/17 A3009 RMK A01 T02030167  RH  080%=      5-min Rain = 0
KDO2 070735Z 16011KT 20/17 A3009 RMK A01 T02030167  RH  080%=      5-min Rain = 0
KDO2 070736Z 16011KT 20/17 A3009 RMK A01 T02030167  RH  080%=      5-min Rain = 0
KDO2 070737Z 16009KT 20/17 A3009 RMK A01 T02030167  RH  080%=      5-min Rain = 0
KDO2 070738Z 16010KT 20/17 A3009 RMK A01 T02020166  RH  080%=      5-min Rain = 0
KDO2 070739Z 16010KT 20/17 A3009 RMK A01 T02020166  RH  080%=      5-min Rain = 0
KDO2 070740Z 16008G14KT 20/17 A3009 RMK A01 T02020166  RH  080%=      5-min Rain = 0
KDO2 070741Z 16011KT 20/17 A3009 RMK A01 T02020166  RH  080%=      5-min Rain = 0
KDO2 070742Z 16009KT 20/17 A3009 RMK A01 T02020166  RH  080%=      5-min Rain = 0
KDO2 070743Z 16011KT 20/17 A3009 RMK A01 T02020166  RH  080%=      5-min Rain = 0
KDO2 070744Z 17010KT 20/17 A3009 RMK A01 T02020166  RH  080%=      5-min Rain = 0
KDO2 070745Z 16009KT 20/17 A3009 RMK A01 T02020166  RH  080%=      5-min Rain = 0
KDO2 070746Z 16011KT 20/17 A3009 RMK A01 T02020166  RH  080%=      5-min Rain = 0
KDO2 070747Z 16011KT 20/17 A3009 RMK A01 T02020165  RH  080%=      5-min Rain = 0
KDO2 070748Z 17012KT 20/17 A3009 RMK A01 T02020165  RH  079%=      5-min Rain = 0
KDO2 070749Z 17011KT 20/17 A3009 RMK A01 T02020165  RH  079%=      5-min Rain = 0
KDO2 070750Z 17009KT 20/17 A3009 RMK A01 T02020165  RH  079%=      5-min Rain = 0
KDO2 070751Z 16008KT 20/17 A3009 RMK A01 T02010165  RH  079%=      5-min Rain = 0
KDO2 070752Z 17010KT 20/17 A3009 RMK A01 T02020165  RH  079%=      5-min Rain = 0
KDO2 070753Z 16009KT 20/17 A3009 RMK A01 T02020165  RH  079%=      5-min Rain = 0
KDO2 070754Z 16007KT 20/17 A3009 RMK A01 T02020165  RH  079%=      5-min Rain = 0
KDO2 070755Z 16008KT 20/17 A3009 RMK A01 T02020165  RH  079%=      5-min Rain = 0
KDO2 070756Z 17011KT 20/17 A3009 RMK A01 T02020165  RH  079%=      5-min Rain = 0
KDO2 070757Z 17009KT 20/17 A3009 RMK A01 T02020165  RH  079%=      5-min Rain = 0
KDO2 070758Z 17009KT 20/17 A3009 RMK A01 T02020165  RH  079%=      5-min Rain = 0
KDO2 070759Z 16007KT 20/17 A3009 RMK A01 T02020165  RH  079%=      5-min Rain = 0
KDO2 070800Z 17009KT 20/17 A3009 RMK A01 T02020165  RH  079%=      5-min Rain = 0
KDO2 070801Z 17009KT 20/17 A3009 RMK A01 T02020165  RH  079%=      5-min Rain = 0
KDO2 070802Z 16009KT 20/17 A3009 RMK A01 T02020165  RH  079%=      5-min Rain = 0
KDO2 070803Z 17011KT 20/16 A3009 RMK A01 T02020164  RH  079%=      5-min Rain = 0
KDO2 070804Z 17011KT 20/16 A3009 RMK A01 T02020164  RH  079%=      5-min Rain = 0
KDO2 070805Z 16008KT 20/16 A3009 RMK A01 T02020164  RH  079%=      5-min Rain = 0
KDO2 070806Z 16009KT 20/16 A3009 RMK A01 T02020164  RH  079%=      5-min Rain = 0
KDO2 070807Z 16008KT 20/17 A3009 RMK A01 T02020165  RH  079%=      5-min Rain = 0
KDO2 070808Z 16007KT 20/16 A3009 RMK A01 T02020164  RH  079%=      5-min Rain = 0
KDO2 070809Z 16008KT 20/17 A3009 RMK A01 T02020165  RH  079%=      5-min Rain = 0
KDO2 070810Z 16008KT 20/16 A3009 RMK A01 T02010164  RH  079%=      5-min Rain = 0
KDO2 070811Z 16006KT 20/16 A3009 RMK A01 T02010164  RH  079%=      5-min Rain = 0
KDO2 070812Z 17007KT 20/16 A3009 RMK A01 T02010164  RH  079%=      5-min Rain = 0
KDO2 070813Z 17009KT 20/16 A3009 RMK A01 T02010164  RH  079%=      5-min Rain = 0
KDO2 070814Z 17009KT 20/16 A3009 RMK A01 T02010164  RH  079%=      5-min Rain = 0
KDO2 070815Z 17007KT 20/16 A3009 RMK A01 T02010164  RH  079%=      5-min Rain = 0
KDO2 070816Z 16006KT 20/16 A301 RMK A01 T02010164  RH  079%=      5-min Rain = 0
KDO2 070817Z 17006KT 20/16 A301 RMK A01 T02010164  RH  079%=      5-min Rain = 0
KDO2 070818Z 17005KT 20/16 A301 RMK A01 T02010164  RH  079%=      5-min Rain = 0
KDO2 070819Z 18008KT 20/16 A301 RMK A01 T02010164  RH  079%=      5-min Rain = 0
KDO2 070820Z 17008KT 20/16 A301 RMK A01 T02010164  RH  079%=      5-min Rain = 0
KDO2 070821Z 16006KT 20/16 A301 RMK A01 T02010164  RH  079%=      5-min Rain = 0
KDO2 070822Z 17006KT 20/16 A3009 RMK A01 T02010164  RH  079%=      5-min Rain = 0
KDO2 070823Z 16006KT 20/16 A3009 RMK A01 T02010164  RH  079%=      5-min Rain = 0
KDO2 070824Z 16005KT 20/16 A3009 RMK A01 T02010164  RH  079%=      5-min Rain = 0
KDO2 070825Z 17006KT 20/16 A3009 RMK A01 T02000164  RH  080%=      5-min Rain = 0
KDO2 070826Z 15006KT 20/16 A3009 RMK A01 T02000164  RH  080%=      5-min Rain = 0
KDO2 070827Z 16007KT 20/16 A3009 RMK A01 T02000164  RH  080%=      5-min Rain = 0
KDO2 070828Z 16008KT 20/16 A3009 RMK A01 T02000164  RH  080%=      5-min Rain = 0
KDO2 070829Z 16008KT 20/16 A3009 RMK A01 T02000164  RH  080%=      5-min Rain = 0
KDO2 070830Z 16009KT 20/16 A3009 RMK A01 T02000164  RH  080%=      5-min Rain = 0
KDO2 070831Z 16006KT 20/16 A3009 RMK A01 T02000164  RH  079%=      5-min Rain = 0
KDO2 070832Z 15007KT 20/16 A3009 RMK A01 T02000164  RH  079%=      5-min Rain = 0
KDO2 070833Z 17006KT 20/16 A3009 RMK A01 T02000164  RH  080%=      5-min Rain = 0
KDO2 070834Z 17006KT 20/16 A3009 RMK A01 T02000164  RH  080%=      5-min Rain = 0
KDO2 070835Z 16006KT 20/16 A3009 RMK A01 T02000164  RH  080%=      5-min Rain = 0
KDO2 070836Z 16008KT 20/16 A3009 RMK A01 T02000164  RH  080%=      5-min Rain = 0
KDO2 070837Z 16008KT 20/16 A3009 RMK A01 T02000164  RH  080%=      5-min Rain = 0
KDO2 070838Z 16008KT 20/16 A3009 RMK A01 T02000164  RH  080%=      5-min Rain = 0
KDO2 070839Z 16008KT 20/16 A3009 RMK A01 T02000164  RH  080%=      5-min Rain = 0
KDO2 070840Z 16006KT 20/16 A3009 RMK A01 T02000164  RH  080%=      5-min Rain = 0
KDO2 070841Z 16008KT 20/16 A3009 RMK A01 T02000164  RH  080%=      5-min Rain = 0
KDO2 070842Z 15008KT 20/16 A3009 RMK A01 T02000164  RH  080%=      5-min Rain = 0
KDO2 070843Z 15006KT 20/16 A3009 RMK A01 T02000164  RH  080%=      5-min Rain = 0
KDO2 070844Z 15006KT 20/16 A3009 RMK A01 T02000164  RH  080%=      5-min Rain = 0
KDO2 070845Z 15005KT 20/16 A3009 RMK A01 T02000164  RH  080%=      5-min Rain = 0
KDO2 070846Z 15006KT 20/16 A3009 RMK A01 T01990164  RH  080%=      5-min Rain = 0
KDO2 070847Z 16006KT 20/16 A3009 RMK A01 T01990164  RH  080%=      5-min Rain = 0
KDO2 070848Z 16005KT 20/16 A3009 RMK A01 T01990164  RH  080%=      5-min Rain = 0
KDO2 070849Z 15006KT 20/16 A3009 RMK A01 T01990164  RH  080%=      5-min Rain = 0
KDO2 070850Z 15004KT 20/16 A3009 RMK A01 T01990164  RH  080%=      5-min Rain = 0
KDO2 070851Z 16005KT 20/16 A3009 RMK A01 T01990164  RH  080%=      5-min Rain = 0
KDO2 070852Z 16005KT 20/16 A3009 RMK A01 T01990164  RH  080%=      5-min Rain = 0
KDO2 070853Z 16006KT 20/16 A3009 RMK A01 T01990164  RH  080%=      5-min Rain = 0
KDO2 070854Z 16005KT 20/16 A3009 RMK A01 T01990164  RH  080%=      5-min Rain = 0
KDO2 070855Z 15005KT 20/16 A3009 RMK A01 T01990164  RH  080%=      5-min Rain = 0
KDO2 070856Z 15005KT 20/16 A3009 RMK A01 T01990164  RH  080%=      5-min Rain = 0
KDO2 070857Z 16005KT 20/16 A3009 RMK A01 T01990164  RH  080%=      5-min Rain = 0
KDO2 070858Z 16006KT 20/16 A3009 RMK A01 T01980164  RH  080%=      5-min Rain = 0
KDO2 070859Z 16007KT 20/16 A3009 RMK A01 T01980163  RH  080%=      5-min Rain = 0
KDO2 070900Z 16007KT 20/16 A3009 RMK A01 T01990163  RH  080%=      5-min Rain = 0
KDO2 070901Z 16005KT 20/16 A3009 RMK A01 T01980163  RH  080%=      5-min Rain = 0
KDO2 070902Z 17009KT 20/16 A3009 RMK A01 T01980163  RH  080%=      5-min Rain = 0
KDO2 070903Z 17007KT 20/16 A3009 RMK A01 T01980163  RH  080%=      5-min Rain = 0
KDO2 070904Z 17008KT 20/16 A3009 RMK A01 T01980163  RH  080%=      5-min Rain = 0
KDO2 070905Z 16008KT 20/16 A3009 RMK A01 T01990163  RH  080%=      5-min Rain = 0
KDO2 070906Z 16008KT 20/16 A3009 RMK A01 T01990163  RH  080%=      5-min Rain = 0
KDO2 070907Z 16005KT 20/16 A3009 RMK A01 T01990163  RH  080%=      5-min Rain = 0
KDO2 070908Z 15004KT 20/16 A3009 RMK A01 T01990163  RH  080%=      5-min Rain = 0
KDO2 070909Z 15006KT 20/16 A3009 RMK A01 T01990163  RH  080%=      5-min Rain = 0
KDO2 070910Z 17006KT 20/16 A3009 RMK A01 T01980163  RH  080%=      5-min Rain = 0
KDO2 070911Z 16005KT 20/16 A301 RMK A01 T01980163  RH  080%=      5-min Rain = 0
KDO2 070912Z 16004KT 20/16 A301 RMK A01 T01990163  RH  080%=      5-min Rain = 0
KDO2 070913Z 16006KT 20/16 A301 RMK A01 T01980163  RH  080%=      5-min Rain = 0
KDO2 070914Z 16007KT 20/16 A301 RMK A01 T01980163  RH  080%=      5-min Rain = 0
KDO2 070915Z 15007KT 20/16 A301 RMK A01 T01980163  RH  080%=      5-min Rain = 0
KDO2 070916Z 16006KT 20/16 A301 RMK A01 T01980163  RH  080%=      5-min Rain = 0
KDO2 070917Z 16007KT 20/16 A301 RMK A01 T01980163  RH  080%=      5-min Rain = 0
KDO2 070918Z 15007KT 20/16 A301 RMK A01 T01980163  RH  080%=      5-min Rain = 0
KDO2 070919Z 15008KT 20/16 A301 RMK A01 T01980163  RH  080%=      5-min Rain = 0
KDO2 070920Z 15007KT 20/16 A301 RMK A01 T01980163  RH  080%=      5-min Rain = 0
KDO2 070921Z 15007KT 20/16 A301 RMK A01 T01980163  RH  080%=      5-min Rain = 0
KDO2 070922Z 15007KT 20/16 A301 RMK A01 T01980164  RH  081%=      5-min Rain = 0
KDO2 070923Z 15007KT 20/16 A301 RMK A01 T01980164  RH  081%=      5-min Rain = 0
KDO2 070924Z 16006KT 20/16 A301 RMK A01 T01980164  RH  081%=      5-min Rain = 0
KDO2 070925Z 15006KT 20/16 A301 RMK A01 T01980164  RH  081%=      5-min Rain = 0
KDO2 070926Z 14005KT 20/16 A301 RMK A01 T01970164  RH  081%=      5-min Rain = 0
KDO2 070927Z 15007KT 20/16 A301 RMK A01 T01970164  RH  081%=      5-min Rain = 0
KDO2 070928Z 15008KT 20/16 A301 RMK A01 T01970164  RH  081%=      5-min Rain = 0
KDO2 070929Z 15007KT 20/16 A301 RMK A01 T01970164  RH  081%=      5-min Rain = 0
KDO2 070930Z 15005KT 20/16 A301 RMK A01 T01970164  RH  081%=      5-min Rain = 0
KDO2 070931Z 15006KT 20/16 A301 RMK A01 T01970164  RH  081%=      5-min Rain = 0
KDO2 070932Z 15005KT 20/16 A301 RMK A01 T01970164  RH  081%=      5-min Rain = 0
KDO2 070933Z 14007KT 20/16 A301 RMK A01 T01970164  RH  081%=      5-min Rain = 0
KDO2 070934Z 14008KT 20/16 A301 RMK A01 T01970164  RH  081%=      5-min Rain = 0
KDO2 070935Z 14009KT 20/16 A301 RMK A01 T01970164  RH  081%=      5-min Rain = 0
KDO2 070936Z 15008KT 20/16 A301 RMK A01 T01970163  RH  081%=      5-min Rain = 0
KDO2 070937Z 15006KT 20/16 A301 RMK A01 T01970164  RH  081%=      5-min Rain = 0
KDO2 070938Z 15005KT 20/16 A301 RMK A01 T01970164  RH  081%=      5-min Rain = 0
KDO2 070939Z 14004KT 20/16 A3011 RMK A01 T01970164  RH  081%=      5-min Rain = 0
KDO2 070940Z 14004KT 20/16 A3011 RMK A01 T01970164  RH  081%=      5-min Rain = 0
KDO2 070941Z 12003KT 20/16 A3011 RMK A01 T01970164  RH  081%=      5-min Rain = 0
KDO2 070942Z 12004KT 20/16 A3011 RMK A01 T01970164  RH  081%=      5-min Rain = 0
KDO2 070943Z 11004KT 20/16 A3011 RMK A01 T01970164  RH  081%=      5-min Rain = 0
KDO2 070944Z 07003KT 20/16 A3011 RMK A01 T01970164  RH  081%=      5-min Rain = 0
KDO2 070945Z 05003KT 20/16 A3011 RMK A01 T01970164  RH  081%=      5-min Rain = 0
KDO2 070946Z 04004KT 20/16 A3011 RMK A01 T01960164  RH  081%=      5-min Rain = 0
KDO2 070947Z 03005KT 20/16 A3011 RMK A01 T01960164  RH  082%=      5-min Rain = 0
KDO2 070948Z 02005KT 20/16 A3011 RMK A01 T01960164  RH  082%=      5-min Rain = 0
KDO2 070949Z 01005KT 20/16 A3011 RMK A01 T01960164  RH  082%=      5-min Rain = 0
KDO2 070950Z 01005KT 20/16 A3011 RMK A01 T01950164  RH  082%=      5-min Rain = 0
KDO2 070951Z 00005KT 20/17 A3012 RMK A01 T01950165  RH  082%=      5-min Rain = 0
KDO2 070952Z 00005KT 20/16 A3012 RMK A01 T01950164  RH  083%=      5-min Rain = 0
KDO2 070953Z 01007KT 20/17 A3012 RMK A01 T01950165  RH  083%=      5-min Rain = 0
KDO2 070954Z 01012KT 19/16 A3012 RMK A01 T01940162  RH  081%=      5-min Rain = 0
KDO2 070955Z 35013G19KT 19/16 A3012 RMK A01 T01920159  RH  081%=      5-min Rain = 0
KDO2 070956Z 35016KT 19/16 A3013 RMK A01 T01890157  RH  082%=      5-min Rain = 0
KDO2 070957Z 35016KT 19/16 A3013 RMK A01 T01870156  RH  082%=      5-min Rain = 0
KDO2 070958Z 35016KT 18/16 A3013 RMK A01 T01840157  RH  084%=      5-min Rain = 0.01
KDO2 070959Z 35016KT 18/16 A3013 RMK A01 T01810157  RH  086%=      5-min Rain = 0.03
KDO2 071000Z 34017KT 18/16 A3014 RMK A01 T01770158  RH  089%=      5-min Rain = 0.02
KDO2 071001Z 34014KT 17/16 A3014 RMK A01 T01740158  RH  091%=      5-min Rain = 0.02
KDO2 071002Z 34012KT 17/16 A3014 RMK A01 T01710158  RH  092%=      5-min Rain = 0.01
KDO2 071003Z 34013KT 17/16 A3014 RMK A01 T01700158  RH  093%=      5-min Rain = 0.01
KDO2 071004Z 35013KT 17/16 A3014 RMK A01 T01680158  RH  094%=      5-min Rain = 0.01
KDO2 071005Z 35012KT 17/16 A3015 RMK A01 T01680158  RH  094%=      5-min Rain = 0.01
KDO2 071006Z 36010KT 17/16 A3015 RMK A01 T01670158  RH  094%=      5-min Rain = 0.02
KDO2 071007Z 35011KT 17/16 A3015 RMK A01 T01660158  RH  095%=      5-min Rain = 0.02
KDO2 071008Z 35009KT 17/16 A3015 RMK A01 T01660158  RH  095%=      5-min Rain = 0.02
KDO2 071009Z 35009KT 17/16 A3015 RMK A01 T01660158  RH  095%=      5-min Rain = 0.01
KDO2 071010Z 35009KT 17/16 A3015 RMK A01 T01650158  RH  095%=      5-min Rain = 0.01
KDO2 071011Z 34009KT 17/16 A3016 RMK A01 T01650158  RH  096%=      5-min Rain = 0
KDO2 071012Z 35010KT 17/16 A3016 RMK A01 T01650158  RH  095%=      5-min Rain = 0.02
KDO2 071013Z 33011KT 17/16 A3017 RMK A01 T01650158  RH  095%=      5-min Rain = 0
KDO2 071014Z 34010KT 17/16 A3017 RMK A01 T01650158  RH  095%=      5-min Rain = 0.01
KDO2 071015Z 36010KT 17/16 A3017 RMK A01 T01650158  RH  095%=      5-min Rain = 0.01
KDO2 071016Z 35009KT 17/16 A3017 RMK A01 T01650158  RH  095%=      5-min Rain = 0.01
KDO2 071017Z 35009KT 17/16 A3017 RMK A01 T01650158  RH  096%=      5-min Rain = 0.04
KDO2 071018Z 35009KT 17/16 A3017 RMK A01 T01650157  RH  096%=      5-min Rain = 0.03
KDO2 071019Z 36007KT 17/16 A3017 RMK A01 T01650158  RH  096%=      5-min Rain = 0.02
KDO2 071020Z 36005KT 16/16 A3017 RMK A01 T01640158  RH  096%=      5-min Rain = 0.02
KDO2 071021Z 35007KT 16/16 A3017 RMK A01 T01640158  RH  096%=      5-min Rain = 0.02
KDO2 071022Z 00007KT 16/16 A3017 RMK A01 T01640158  RH  096%=      5-min Rain = 0.01
KDO2 071023Z 35007KT 16/16 A3017 RMK A01 T01640158  RH  096%=      5-min Rain = 0.02
KDO2 071024Z 36007KT 16/16 A3017 RMK A01 T01640158  RH  096%=      5-min Rain = 0.02
KDO2 071025Z 01007KT 16/16 A3017 RMK A01 T01630158  RH  096%=      5-min Rain = 0.01
KDO2 071026Z 35006KT 16/16 A3017 RMK A01 T01630158  RH  096%=      5-min Rain = 0.01
KDO2 071027Z 36006KT 16/16 A3017 RMK A01 T01630158  RH  097%=      5-min Rain = 0.02
KDO2 071028Z 36006KT 16/16 A3017 RMK A01 T01630158  RH  097%=      5-min Rain = 0.01
KDO2 071029Z 00005KT 16/16 A3017 RMK A01 T01630158  RH  097%=      5-min Rain = 0
KDO2 071030Z 01005KT 16/16 A3017 RMK A01 T01630158  RH  097%=      5-min Rain = 0.01
KDO2 071031Z 02004KT 16/16 A3017 RMK A01 T01630158  RH  097%=      5-min Rain = 0.01
KDO2 071032Z 01006KT 16/16 A3017 RMK A01 T01630158  RH  097%=      5-min Rain = 0.01
KDO2 071033Z 02006KT 16/16 A3017 RMK A01 T01630158  RH  097%=      5-min Rain = 0.01
KDO2 071034Z 02005KT 16/16 A3017 RMK A01 T01630158  RH  097%=      5-min Rain = 0
KDO2 071035Z 02007KT 16/16 A3017 RMK A01 T01630158  RH  097%=      5-min Rain = 0.01
KDO2 071036Z 03008KT 16/16 A3017 RMK A01 T01620158  RH  097%=      5-min Rain = 0.01
KDO2 071037Z 03010KT 16/16 A3016 RMK A01 T01620157  RH  097%=      5-min Rain = 0
KDO2 071038Z 03010KT 16/16 A3015 RMK A01 T01620158  RH  097%=      5-min Rain = 0.01
KDO2 071039Z 04012KT 16/16 A3014 RMK A01 T01620157  RH  097%=      5-min Rain = 0
KDO2 071040Z 04015KT 16/16 A3013 RMK A01 T01620157  RH  097%=      5-min Rain = 0.01
KDO2 071041Z 04013KT 16/16 A3013 RMK A01 T01620157  RH  097%=      5-min Rain = 0
KDO2 071042Z 04012KT 16/16 A3013 RMK A01 T01620157  RH  097%=      5-min Rain = 0
KDO2 071043Z 05010KT 16/16 A3013 RMK A01 T01620157  RH  097%=      5-min Rain = 0.01
KDO2 071044Z 04009KT 16/16 A3013 RMK A01 T01620157  RH  097%=      5-min Rain = 0
KDO2 071045Z 05009KT 16/16 A3013 RMK A01 T01620157  RH  097%=      5-min Rain = 0.01
KDO2 071046Z 04010KT 16/16 A3013 RMK A01 T01620157  RH  097%=      5-min Rain = 0
KDO2 071047Z 05009KT 16/16 A3013 RMK A01 T01620157  RH  097%=      5-min Rain = 0
KDO2 071048Z 05009KT 16/16 A3013 RMK A01 T01620158  RH  097%=      5-min Rain = 0.01
KDO2 071049Z 06011KT 16/16 A3013 RMK A01 T01620158  RH  097%=      5-min Rain = 0
KDO2 071050Z 06009KT 16/16 A3012 RMK A01 T01620158  RH  097%=      5-min Rain = 0
KDO2 071051Z 06010KT 16/16 A3013 RMK A01 T01620158  RH  097%=      5-min Rain = 0
KDO2 071052Z 07011KT 16/16 A3013 RMK A01 T01620158  RH  097%=      5-min Rain = 0
KDO2 071053Z 06010KT 16/16 A3013 RMK A01 T01620158  RH  097%=      5-min Rain = 0.01
KDO2 071054Z 07008KT 16/16 A3013 RMK A01 T01620157  RH  097%=      5-min Rain = 0
KDO2 071055Z 06007KT 16/16 A3013 RMK A01 T01620157  RH  097%=      5-min Rain = 0
KDO2 071056Z 07007G13KT 16/16 A3013 RMK A01 T01620157  RH  097%=      5-min Rain = 0
KDO2 071057Z 06010KT 16/16 A3013 RMK A01 T01620157  RH  097%=      5-min Rain = 0
KDO2 071058Z 07010KT 16/16 A3013 RMK A01 T01620157  RH  097%=      5-min Rain = 0
KDO2 071059Z 07009KT 16/16 A3013 RMK A01 T01620157  RH  097%=      5-min Rain = 0
KDO2 071100Z 07010KT 16/16 A3013 RMK A01 T01620157  RH  097%=      5-min Rain = 0
KDO2 071101Z 07010KT 16/16 A3012 RMK A01 T01620157  RH  097%=      5-min Rain = 0
KDO2 071102Z 07010KT 16/16 A3013 RMK A01 T01620157  RH  097%=      5-min Rain = 0
KDO2 071103Z 07008KT 16/16 A3013 RMK A01 T01620157  RH  097%=      5-min Rain = 0
KDO2 071104Z 07008KT 16/16 A3013 RMK A01 T01620157  RH  097%=      5-min Rain = 0
KDO2 071105Z 07008KT 16/16 A3014 RMK A01 T01620157  RH  097%=      5-min Rain = 0.01
KDO2 071106Z 08007KT 16/16 A3014 RMK A01 T01620157  RH  097%=      5-min Rain = 0
KDO2 071107Z 08007KT 16/16 A3014 RMK A01 T01620157  RH  097%=      5-min Rain = 0
KDO2 071108Z 08007KT 16/16 A3014 RMK A01 T01620157  RH  097%=      5-min Rain = 0
KDO2 071109Z 08008KT 16/16 A3014 RMK A01 T01620157  RH  097%=      5-min Rain = 0
KDO2 071110Z 07007KT 16/16 A3014 RMK A01 T01620157  RH  097%=      5-min Rain = 0
KDO2 071111Z 08005KT 16/16 A3014 RMK A01 T01620157  RH  097%=      5-min Rain = 0
KDO2 071112Z 09008KT 16/16 A3014 RMK A01 T01620157  RH  097%=      5-min Rain = 0
KDO2 071113Z 09008KT 16/16 A3014 RMK A01 T01620157  RH  097%=      5-min Rain = 0
KDO2 071114Z 09008KT 16/16 A3014 RMK A01 T01620157  RH  097%=      5-min Rain = 0
KDO2 071115Z 08007KT 16/16 A3014 RMK A01 T01620157  RH  097%=      5-min Rain = 0
KDO2 071116Z 08007KT 16/16 A3014 RMK A01 T01620157  RH  097%=      5-min Rain = 0
KDO2 071117Z 09009KT 16/16 A3014 RMK A01 T01620157  RH  097%=      5-min Rain = 0
KDO2 071118Z 09009KT 16/16 A3014 RMK A01 T01620157  RH  097%=      5-min Rain = 0
KDO2 071119Z 08008KT 16/16 A3014 RMK A01 T01620157  RH  097%=      5-min Rain = 0
KDO2 071120Z 08008KT 16/16 A3015 RMK A01 T01620157  RH  097%=      5-min Rain = 0
KDO2 071121Z 08007KT 16/16 A3015 RMK A01 T01620157  RH  097%=      5-min Rain = 0
KDO2 071122Z 08007KT 16/16 A3015 RMK A01 T01620157  RH  097%=      5-min Rain = 0
KDO2 071123Z 08007KT 16/16 A3015 RMK A01 T01620156  RH  097%=      5-min Rain = 0
KDO2 071124Z 08007KT 16/16 A3015 RMK A01 T01620157  RH  097%=      5-min Rain = 0
KDO2 071125Z 09007KT 16/16 A3015 RMK A01 T01620157  RH  097%=      5-min Rain = 0
KDO2 071126Z 08008KT 16/16 A3014 RMK A01 T01620157  RH  097%=      5-min Rain = 0
KDO2 071127Z 08008KT 16/16 A3014 RMK A01 T01620156  RH  097%=      5-min Rain = 0
KDO2 071128Z 08008KT 16/16 A3014 RMK A01 T01620157  RH  097%=      5-min Rain = 0
KDO2 071129Z 09008KT 16/16 A3013 RMK A01 T01620157  RH  097%=      5-min Rain = 0
KDO2 071130Z 08009KT 16/16 A3013 RMK A01 T01620156  RH  097%=      5-min Rain = 0
KDO2 071131Z 09009KT 16/16 A3012 RMK A01 T01610156  RH  097%=      5-min Rain = 0
KDO2 071132Z 08009KT 16/16 A3012 RMK A01 T01610156  RH  097%=      5-min Rain = 0.01
KDO2 071133Z 08010KT 16/16 A3011 RMK A01 T01610156  RH  097%=      5-min Rain = 0
KDO2 071134Z 09008KT 16/16 A3011 RMK A01 T01620156  RH  097%=      5-min Rain = 0
KDO2 071135Z 08010KT 16/16 A3011 RMK A01 T01610156  RH  097%=      5-min Rain = 0
KDO2 071136Z 09009KT 16/16 A3012 RMK A01 T01610156  RH  097%=      5-min Rain = 0
KDO2 071137Z 09009KT 16/16 A3012 RMK A01 T01610156  RH  097%=      5-min Rain = 0
KDO2 071138Z 09009KT 16/16 A3012 RMK A01 T01610156  RH  097%=      5-min Rain = 0
KDO2 071139Z 09011KT 16/16 A3012 RMK A01 T01610156  RH  097%=      5-min Rain = 0
KDO2 071140Z 09010KT 16/16 A3012 RMK A01 T01610156  RH  097%=      5-min Rain = 0
KDO2 071141Z 09009KT 16/16 A3011 RMK A01 T01610156  RH  097%=      5-min Rain = 0
KDO2 071142Z 10009KT 16/16 A3011 RMK A01 T01610156  RH  097%=      5-min Rain = 0
KDO2 071143Z 09010KT 16/16 A3011 RMK A01 T01600155  RH  097%=      5-min Rain = 0
KDO2 071144Z 09010KT 16/16 A3011 RMK A01 T01600155  RH  097%=      5-min Rain = 0
KDO2 071145Z 09010KT 16/16 A3011 RMK A01 T01600155  RH  097%=      5-min Rain = 0
KDO2 071146Z 09009KT 16/16 A3011 RMK A01 T01610156  RH  097%=      5-min Rain = 0.01
KDO2 071147Z 09009KT 16/16 A3011 RMK A01 T01610156  RH  097%=      5-min Rain = 0
KDO2 071148Z 09009KT 16/16 A3011 RMK A01 T01600156  RH  097%=      5-min Rain = 0
KDO2 071149Z 09009KT 16/16 A3011 RMK A01 T01610156  RH  097%=      5-min Rain = 0
KDO2 071150Z 08009KT 16/16 A3011 RMK A01 T01610156  RH  097%=      5-min Rain = 0
KDO2 071151Z 09012KT 16/16 A3011 RMK A01 T01600156  RH  097%=      5-min Rain = 0
KDO2 071152Z 09010KT 16/16 A3011 RMK A01 T01600155  RH  097%=      5-min Rain = 0
KDO2 071153Z 08008KT 16/16 A3011 RMK A01 T01600156  RH  097%=      5-min Rain = 0
KDO2 071154Z 08010KT 16/16 A3011 RMK A01 T01600155  RH  097%=      5-min Rain = 0
KDO2 071155Z 09010KT 16/16 A3011 RMK A01 T01600156  RH  097%=      5-min Rain = 0
KDO2 071156Z 09010KT 16/16 A3011 RMK A01 T01600156  RH  097%=      5-min Rain = 0
KDO2 071157Z 09012KT 16/16 A301 RMK A01 T01610156  RH  097%=      5-min Rain = 0
KDO2 071158Z 09011KT 16/16 A301 RMK A01 T01600155  RH  097%=      5-min Rain = 0
KDO2 071159Z 09012KT 16/16 A301 RMK A01 T01600155  RH  097%=      5-min Rain = 0
KDO2 071200Z 09012KT 16/16 A301 RMK A01 T01600155  RH  097%=      5-min Rain = 0
KDO2 071201Z 09009KT 16/16 A301 RMK A01 T01600155  RH  097%=      5-min Rain = 0
KDO2 071202Z 09010KT 16/16 A3011 RMK A01 T01600155  RH  097%=      5-min Rain = 0
KDO2 071203Z 09011KT 16/16 A3011 RMK A01 T01600155  RH  097%=      5-min Rain = 0
KDO2 071204Z 09013KT 16/16 A3011 RMK A01 T01600155  RH  097%=      5-min Rain = 0
KDO2 071205Z 09010KT 16/16 A3011 RMK A01 T01600155  RH  097%=      5-min Rain = 0
KDO2 071206Z 09011KT 16/16 A3011 RMK A01 T01600155  RH  097%=      5-min Rain = 0
KDO2 071207Z 09011KT 16/16 A3011 RMK A01 T01600155  RH  097%=      5-min Rain = 0
KDO2 071208Z 09012KT 16/16 A3011 RMK A01 T01600155  RH  097%=      5-min Rain = 0
KDO2 071209Z 10010KT 16/16 A3011 RMK A01 T01600155  RH  097%=      5-min Rain = 0
KDO2 071210Z 09011KT 16/16 A3012 RMK A01 T01600155  RH  097%=      5-min Rain = 0
KDO2 071211Z 09009KT 16/16 A3012 RMK A01 T01600155  RH  097%=      5-min Rain = 0
KDO2 071212Z 09007KT 16/16 A3012 RMK A01 T01600155  RH  097%=      5-min Rain = 0
KDO2 071213Z 08008KT 16/16 A3012 RMK A01 T01600155  RH  097%=      5-min Rain = 0
KDO2 071214Z 08008KT 16/16 A3013 RMK A01 T01600155  RH  097%=      5-min Rain = 0
KDO2 071215Z 08008KT 16/16 A3013 RMK A01 T01600155  RH  097%=      5-min Rain = 0
KDO2 071216Z 08007KT 16/16 A3013 RMK A01 T01600155  RH  097%=      5-min Rain = 0
KDO2 071217Z 08007KT 16/16 A3014 RMK A01 T01600155  RH  097%=      5-min Rain = 0
KDO2 071218Z 07008KT 16/16 A3014 RMK A01 T01600155  RH  097%=      5-min Rain = 0
KDO2 071219Z 07006KT 16/15 A3014 RMK A01 T01600154  RH  097%=      5-min Rain = 0
KDO2 071220Z 08006KT 16/16 A3014 RMK A01 T01600155  RH  097%=      5-min Rain = 0
KDO2 071221Z 07006KT 16/15 A3014 RMK A01 T01600154  RH  096%=      5-min Rain = 0
KDO2 071222Z 08006KT 16/15 A3014 RMK A01 T01600154  RH  096%=      5-min Rain = 0
KDO2 071223Z 07005KT 16/15 A3015 RMK A01 T01600154  RH  096%=      5-min Rain = 0
KDO2 071224Z 05004KT 16/15 A3015 RMK A01 T01600154  RH  096%=      5-min Rain = 0
KDO2 071225Z 06004KT 16/16 A3015 RMK A01 T01600155  RH  096%=      5-min Rain = 0
KDO2 071226Z 07005KT 16/15 A3015 RMK A01 T01600154  RH  096%=      5-min Rain = 0
KDO2 071227Z 07005KT 16/16 A3015 RMK A01 T01600155  RH  096%=      5-min Rain = 0
KDO2 071228Z 07005KT 16/15 A3015 RMK A01 T01600154  RH  096%=      5-min Rain = 0
KDO2 071229Z 08004KT 16/15 A3015 RMK A01 T01600154  RH  096%=      5-min Rain = 0
KDO2 071230Z 07004KT 16/15 A3015 RMK A01 T01600154  RH  096%=      5-min Rain = 0
KDO2 071231Z 06003KT 16/15 A3015 RMK A01 T01600154  RH  096%=      5-min Rain = 0
KDO2 071232Z 07005KT 16/15 A3015 RMK A01 T01600154  RH  096%=      5-min Rain = 0
KDO2 071233Z 08005KT 16/15 A3015 RMK A01 T01600154  RH  096%=      5-min Rain = 0
KDO2 071234Z 07005KT 16/15 A3015 RMK A01 T01600154  RH  096%=      5-min Rain = 0
KDO2 071235Z 05005KT 16/15 A3016 RMK A01 T01600154  RH  096%=      5-min Rain = 0
KDO2 071236Z 05005KT 16/15 A3016 RMK A01 T01600154  RH  096%=      5-min Rain = 0
KDO2 071237Z 04004KT 16/15 A3016 RMK A01 T01600154  RH  096%=      5-min Rain = 0
KDO2 071238Z 04004KT 16/16 A3016 RMK A01 T01600155  RH  096%=      5-min Rain = 0
KDO2 071239Z 03004KT 16/16 A3017 RMK A01 T01610155  RH  096%=      5-min Rain = 0
KDO2 071240Z 02003KT 16/16 A3017 RMK A01 T01610155  RH  096%=      5-min Rain = 0
KDO2 071241Z 02004KT 16/16 A3017 RMK A01 T01600155  RH  096%=      5-min Rain = 0
KDO2 071242Z 02004KT 16/16 A3017 RMK A01 T01610155  RH  096%=      5-min Rain = 0
KDO2 071243Z 01004KT 16/16 A3017 RMK A01 T01600155  RH  096%=      5-min Rain = 0
KDO2 071244Z 01004KT 16/16 A3017 RMK A01 T01610155  RH  096%=      5-min Rain = 0
KDO2 071245Z 01004KT 16/16 A3018 RMK A01 T01610155  RH  096%=      5-min Rain = 0
KDO2 071246Z 01004KT 16/16 A3018 RMK A01 T01600155  RH  096%=      5-min Rain = 0
KDO2 071247Z 00004KT 16/16 A3018 RMK A01 T01600155  RH  096%=      5-min Rain = 0
KDO2 071248Z 00003KT 16/16 A3018 RMK A01 T01610155  RH  096%=      5-min Rain = 0
KDO2 071249Z 00003KT 16/16 A3018 RMK A01 T01600155  RH  097%=      5-min Rain = 0
KDO2 071250Z 01004KT 16/16 A3018 RMK A01 T01600155  RH  097%=      5-min Rain = 0
KDO2 071251Z 00003KT 16/16 A3018 RMK A01 T01600155  RH  097%=      5-min Rain = 0
KDO2 071252Z 00002KT 16/16 A3018 RMK A01 T01610155  RH  097%=      5-min Rain = 0
KDO2 071253Z 36002KT 16/16 A3018 RMK A01 T01600155  RH  097%=      5-min Rain = 0
KDO2 071254Z 00002KT 16/16 A3019 RMK A01 T01600155  RH  097%=      5-min Rain = 0
KDO2 071255Z 00002KT 16/16 A3019 RMK A01 T01610155  RH  097%=      5-min Rain = 0
KDO2 071256Z 36002KT 16/16 A3019 RMK A01 T01600155  RH  097%=      5-min Rain = 0
KDO2 071257Z 36001KT 16/16 A3019 RMK A01 T01610155  RH  097%=      5-min Rain = 0
KDO2 071258Z 35001KT 16/16 A3019 RMK A01 T01610156  RH  097%=      5-min Rain = 0
KDO2 071259Z 36001KT 16/16 A3019 RMK A01 T01610155  RH  097%=      5-min Rain = 0
KDO2 071300Z 35002KT 16/16 A3019 RMK A01 T01600155  RH  097%=      5-min Rain = 0
KDO2 071301Z 36002KT 16/16 A3019 RMK A01 T01600155  RH  097%=      5-min Rain = 0
KDO2 071302Z 34002KT 16/16 A3019 RMK A01 T01600155  RH  097%=      5-min Rain = 0
KDO2 071303Z 35002KT 16/16 A3019 RMK A01 T01610155  RH  097%=      5-min Rain = 0
KDO2 071304Z 35002KT 16/16 A3019 RMK A01 T01600155  RH  097%=      5-min Rain = 0
KDO2 071305Z 33002KT 16/16 A3019 RMK A01 T01600155  RH  097%=      5-min Rain = 0
KDO2 071306Z 33002KT 16/16 A3019 RMK A01 T01600155  RH  097%=      5-min Rain = 0
KDO2 071307Z 33002KT 16/16 A3019 RMK A01 T01610156  RH  097%=      5-min Rain = 0
KDO2 071308Z 32002KT 16/16 A3019 RMK A01 T01600155  RH  097%=      5-min Rain = 0
KDO2 071309Z 33002KT 16/16 A3019 RMK A01 T01600155  RH  097%=      5-min Rain = 0
KDO2 071310Z 34002KT 16/16 A3019 RMK A01 T01610156  RH  097%=      5-min Rain = 0
KDO2 071311Z 33002KT 16/16 A302 RMK A01 T01600156  RH  097%=      5-min Rain = 0
KDO2 071312Z 31002KT 16/16 A302 RMK A01 T01600155  RH  097%=      5-min Rain = 0
KDO2 071313Z 32003KT 16/16 A302 RMK A01 T01610156  RH  097%=      5-min Rain = 0
KDO2 071314Z 32003KT 16/16 A302 RMK A01 T01610156  RH  097%=      5-min Rain = 0
KDO2 071315Z 32004KT 16/16 A302 RMK A01 T01610156  RH  097%=      5-min Rain = 0
KDO2 071316Z 32006KT 16/16 A302 RMK A01 T01610156  RH  097%=      5-min Rain = 0
KDO2 071317Z 32011KT 16/16 A3021 RMK A01 T01610156  RH  097%=      5-min Rain = 0
KDO2 071318Z 32023G31KT 16/14 A3021 RMK A01 T01550143  RH  092%=      5-min Rain = 0
KDO2 071319Z 33024KT 13/11 A3022 RMK A01 T01330105  RH  083%=      5-min Rain = 0
KDO2 071320Z 33023G28KT 12/10 A3022 RMK A01 T01190096  RH  086%=      5-min Rain = 0
KDO2 071321Z 33025KT 11/09 A3022 RMK A01 T01110093  RH  088%=      5-min Rain = 0
KDO2 071322Z 33020G26KT 11/09 A3022 RMK A01 T01070092  RH  090%=      5-min Rain = 0.01
KDO2 071323Z 34021G26KT 11/09 A3022 RMK A01 T01050093  RH  092%=      5-min Rain = 0
KDO2 071324Z 34021KT 10/09 A3022 RMK A01 T01030091  RH  092%=      5-min Rain = 0
KDO2 071325Z 34019G26KT 10/09 A3022 RMK A01 T01010090  RH  093%=      5-min Rain = 0
KDO2 071326Z 34020G29KT 10/09 A3022 RMK A01 T01000090  RH  094%=      5-min Rain = 0.01
KDO2 071327Z 34019G24KT 10/09 A3022 RMK A01 T00990090  RH  094%=      5-min Rain = 0
KDO2 071328Z 34017KT 10/09 A3023 RMK A01 T00990090  RH  094%=      5-min Rain = 0
KDO2 071329Z 34022G27KT 10/09 A3023 RMK A01 T00980090  RH  094%=      5-min Rain = 0
KDO2 071330Z 34018G23KT 10/09 A3023 RMK A01 T00970089  RH  095%=      5-min Rain = 0.01
KDO2 071331Z 35016KT 10/09 A3024 RMK A01 T00970090  RH  095%=      5-min Rain = 0
KDO2 071332Z 36015KT 10/09 A3024 RMK A01 T00970090  RH  096%=      5-min Rain = 0
KDO2 071333Z 35016G21KT 10/09 A3024 RMK A01 T00960090  RH  096%=      5-min Rain = 0
KDO2 071334Z 35017G23KT 10/09 A3024 RMK A01 T00950088  RH  095%=      5-min Rain = 0
KDO2 071335Z 35015KT 09/09 A3024 RMK A01 T00940086  RH  095%=      5-min Rain = 0
KDO2 071336Z 35018G23KT 09/08 A3024 RMK A01 T00920084  RH  095%=      5-min Rain = 0
KDO2 071337Z 35017G22KT 09/08 A3024 RMK A01 T00910082  RH  094%=      5-min Rain = 0
KDO2 071338Z 34018G23KT 09/08 A3024 RMK A01 T00900081  RH  094%=      5-min Rain = 0
KDO2 071339Z 34017KT 09/08 A3025 RMK A01 T00890080  RH  094%=      5-min Rain = 0
KDO2 071340Z 35018G23KT 09/08 A3025 RMK A01 T00880079  RH  094%=      5-min Rain = 0
KDO2 071341Z 35016KT 09/08 A3025 RMK A01 T00870079  RH  094%=      5-min Rain = 0
KDO2 071342Z 35016G22KT 09/08 A3025 RMK A01 T00870079  RH  095%=      5-min Rain = 0
KDO2 071343Z 35016KT 09/08 A3025 RMK A01 T00870079  RH  095%=      5-min Rain = 0
KDO2 071344Z 34014KT 09/08 A3025 RMK A01 T00870079  RH  095%=      5-min Rain = 0.01
KDO2 071345Z 35015G21KT 09/08 A3025 RMK A01 T00870079  RH  095%=      5-min Rain = 0
KDO2 071346Z 35017KT 09/08 A3025 RMK A01 T00860079  RH  095%=      5-min Rain = 0
KDO2 071347Z 34015KT 09/08 A3025 RMK A01 T00860079  RH  095%=      5-min Rain = 0
KDO2 071348Z 34013KT 09/08 A3025 RMK A01 T00860079  RH  095%=      5-min Rain = 0
KDO2 071349Z 35016G21KT 09/08 A3025 RMK A01 T00860079  RH  095%=      5-min Rain = 0
KDO2 071350Z 35015KT 09/08 A3025 RMK A01 T00860078  RH  095%=      5-min Rain = 0
KDO2 071351Z 35014KT 09/08 A3026 RMK A01 T00850077  RH  095%=      5-min Rain = 0
KDO2 071352Z 35015KT 09/08 A3026 RMK A01 T00850077  RH  095%=      5-min Rain = 0
KDO2 071353Z 34015KT 09/08 A3026 RMK A01 T00850077  RH  095%=      5-min Rain = 0
KDO2 071354Z 35014KT 08/08 A3026 RMK A01 T00840076  RH  095%=      5-min Rain = 0
KDO2 071355Z 35015KT 08/08 A3026 RMK A01 T00840077  RH  095%=      5-min Rain = 0
KDO2 071356Z 34015KT 08/08 A3026 RMK A01 T00840076  RH  095%=      5-min Rain = 0
KDO2 071357Z 34016KT 08/08 A3026 RMK A01 T00830075  RH  095%=      5-min Rain = 0
KDO2 071358Z 34014KT 08/07 A3026 RMK A01 T00820074  RH  095%=      5-min Rain = 0
KDO2 071359Z 34015KT 08/08 A3027 RMK A01 T00820075  RH  095%=      5-min Rain = 0
KDO2 071400Z 34013KT 08/08 A3027 RMK A01 T00820075  RH  095%=      5-min Rain = 0
KDO2 071401Z 35014KT 08/08 A3027 RMK A01 T00820075  RH  095%=      5-min Rain = 0
KDO2 071402Z 34015KT 08/08 A3027 RMK A01 T00820075  RH  095%=      5-min Rain = 0
KDO2 071403Z 34016KT 08/07 A3027 RMK A01 T00810073  RH  095%=      5-min Rain = 0
KDO2 071404Z 35017KT 08/07 A3027 RMK A01 T00810073  RH  095%=      5-min Rain = 0
KDO2 071405Z 35016KT 08/07 A3027 RMK A01 T00810072  RH  094%=      5-min Rain = 0
KDO2 071406Z 35013G19KT 08/07 A3027 RMK A01 T00800072  RH  095%=      5-min Rain = 0
KDO2 071407Z 35012KT 08/07 A3027 RMK A01 T00800073  RH  095%=      5-min Rain = 0
KDO2 071408Z 35011KT 08/07 A3027 RMK A01 T00810073  RH  095%=      5-min Rain = 0
KDO2 071409Z 34015KT 08/07 A3027 RMK A01 T00810074  RH  095%=      5-min Rain = 0
KDO2 071410Z 34015G20KT 08/07 A3027 RMK A01 T00810072  RH  095%=      5-min Rain = 0
KDO2 071411Z 35016KT 08/07 A3027 RMK A01 T00800072  RH  095%=      5-min Rain = 0
KDO2 071412Z 35013KT 08/07 A3028 RMK A01 T00800072  RH  095%=      5-min Rain = 0
KDO2 071413Z 35013KT 08/07 A3028 RMK A01 T00800071  RH  095%=      5-min Rain = 0
KDO2 071414Z 35014KT 08/07 A3028 RMK A01 T00790071  RH  095%=      5-min Rain = 0
KDO2 071415Z 35017KT 08/07 A3028 RMK A01 T00790071  RH  095%=      5-min Rain = 0
KDO2 071416Z 34015G24KT 08/07 A3028 RMK A01 T00780069  RH  094%=      5-min Rain = 0
KDO2 071417Z 36017G22KT 08/07 A3028 RMK A01 T00780069  RH  094%=      5-min Rain = 0
KDO2 071418Z 36017KT 08/07 A3028 RMK A01 T00770067  RH  094%=      5-min Rain = 0
KDO2 071419Z 35016KT 08/07 A3028 RMK A01 T00770068  RH  094%=      5-min Rain = 0
KDO2 071420Z 35017KT 08/07 A3028 RMK A01 T00770067  RH  094%=      5-min Rain = 0
KDO2 071421Z 35019KT 08/07 A3029 RMK A01 T00760065  RH  093%=      5-min Rain = 0
KDO2 071422Z 35018KT 08/06 A3029 RMK A01 T00750064  RH  093%=      5-min Rain = 0
KDO2 071423Z 35018KT 08/06 A3029 RMK A01 T00760064  RH  093%=      5-min Rain = 0
KDO2 071424Z 35017KT 08/06 A3029 RMK A01 T00750064  RH  093%=      5-min Rain = 0
KDO2 071425Z 34017G23KT 08/06 A3029 RMK A01 T00750064  RH  093%=      5-min Rain = 0
KDO2 071426Z 35016KT 08/06 A303 RMK A01 T00750063  RH  092%=      5-min Rain = 0
KDO2 071427Z 35018G23KT 08/06 A303 RMK A01 T00750064  RH  093%=      5-min Rain = 0
KDO2 071428Z 35015KT 08/06 A303 RMK A01 T00750063  RH  092%=      5-min Rain = 0
KDO2 071429Z 36011KT 07/06 A303 RMK A01 T00740064  RH  093%=      5-min Rain = 0
KDO2 071430Z 35011KT 07/07 A303 RMK A01 T00740065  RH  094%=      5-min Rain = 0
KDO2 071431Z 35011KT 07/07 A303 RMK A01 T00740065  RH  094%=      5-min Rain = 0
KDO2 071432Z 36010G17KT 08/07 A303 RMK A01 T00750065  RH  094%=      5-min Rain = 0
KDO2 071433Z 35013KT 08/07 A303 RMK A01 T00750065  RH  094%=      5-min Rain = 0
KDO2 071434Z 35011G16KT 07/06 A303 RMK A01 T00740064  RH  093%=      5-min Rain = 0
KDO2 071435Z 35014KT 07/06 A303 RMK A01 T00740064  RH  093%=      5-min Rain = 0
KDO2 071436Z 36011G16KT 07/06 A303 RMK A01 T00730063  RH  093%=      5-min Rain = 0
KDO2 071437Z 35013G18KT 07/06 A303 RMK A01 T00730063  RH  093%=      5-min Rain = 0
KDO2 071438Z 35011KT 07/06 A303 RMK A01 T00730063  RH  093%=      5-min Rain = 0
KDO2 071439Z 36014KT 07/06 A303 RMK A01 T00730063  RH  093%=      5-min Rain = 0
KDO2 071440Z 35013KT 07/06 A303 RMK A01 T00730062  RH  093%=      5-min Rain = 0
KDO2 071441Z 36013KT 07/06 A303 RMK A01 T00730062  RH  093%=      5-min Rain = 0
KDO2 071442Z 35013KT 07/06 A303 RMK A01 T00730062  RH  093%=      5-min Rain = 0
KDO2 071443Z 36013KT 07/06 A303 RMK A01 T00730062  RH  093%=      5-min Rain = 0
KDO2 071444Z 35014KT 07/06 A303 RMK A01 T00730062  RH  093%=      5-min Rain = 0
KDO2 071445Z 36010KT 07/06 A303 RMK A01 T00720061  RH  093%=      5-min Rain = 0
KDO2 071446Z 36010KT 07/06 A303 RMK A01 T00720063  RH  093%=      5-min Rain = 0
KDO2 071447Z 36012KT 07/06 A3031 RMK A01 T00720062  RH  093%=      5-min Rain = 0
KDO2 071448Z 00013KT 07/06 A3031 RMK A01 T00720062  RH  093%=      5-min Rain = 0
KDO2 071449Z 00013KT 07/06 A3031 RMK A01 T00720061  RH  093%=      5-min Rain = 0
KDO2 071450Z 36014KT 07/06 A3031 RMK A01 T00720061  RH  093%=      5-min Rain = 0
KDO2 071451Z 35013KT 07/06 A3031 RMK A01 T00720061  RH  093%=      5-min Rain = 0
KDO2 071452Z 36011G16KT 07/06 A3031 RMK A01 T00710060  RH  092%=      5-min Rain = 0
KDO2 071453Z 35012KT 07/06 A3031 RMK A01 T00710060  RH  093%=      5-min Rain = 0
KDO2 071454Z 36008KT 07/06 A3031 RMK A01 T00710061  RH  093%=      5-min Rain = 0
KDO2 071455Z 00010KT 07/06 A3031 RMK A01 T00720062  RH  094%=      5-min Rain = 0
KDO2 071456Z 35009KT 07/06 A3031 RMK A01 T00730062  RH  093%=      5-min Rain = 0
KDO2 071457Z 00009KT 07/06 A3031 RMK A01 T00720062  RH  093%=      5-min Rain = 0
KDO2 071458Z 36011KT 07/06 A3031 RMK A01 T00720062  RH  093%=      5-min Rain = 0
KDO2 071459Z 00010KT 07/06 A3031 RMK A01 T00720061  RH  093%=      5-min Rain = 0
KDO2 071500Z 36014KT 07/06 A3031 RMK A01 T00720062  RH  093%=      5-min Rain = 0
KDO2 071501Z 01017KT 07/06 A3031 RMK A01 T00710061  RH  093%=      5-min Rain = 0
KDO2 071502Z 00015KT 07/06 A3031 RMK A01 T00710059  RH  092%=      5-min Rain = 0
KDO2 071503Z 36014KT 07/06 A3031 RMK A01 T00710060  RH  093%=      5-min Rain = 0
KDO2 071504Z 36012KT 07/06 A3031 RMK A01 T00710060  RH  093%=      5-min Rain = 0
KDO2 071505Z 36010KT 07/06 A3031 RMK A01 T00710061  RH  093%=      5-min Rain = 0
KDO2 071506Z 36011G16KT 07/06 A3031 RMK A01 T00720061  RH  093%=      5-min Rain = 0
KDO2 071507Z 35009G14KT 07/06 A3032 RMK A01 T00710062  RH  093%=      5-min Rain = 0
KDO2 071508Z 35008G13KT 07/06 A3032 RMK A01 T00710062  RH  094%=      5-min Rain = 0
KDO2 071509Z 00010KT 07/06 A3032 RMK A01 T00710062  RH  094%=      5-min Rain = 0
KDO2 071510Z 00014KT 07/06 A3032 RMK A01 T00710062  RH  094%=      5-min Rain = 0
KDO2 071511Z 36012KT 07/06 A3032 RMK A01 T00710060  RH  093%=      5-min Rain = 0
KDO2 071512Z 36013KT 07/06 A3032 RMK A01 T00710061  RH  093%=      5-min Rain = 0
KDO2 071513Z 36011KT 07/06 A3032 RMK A01 T00700060  RH  093%=      5-min Rain = 0
KDO2 071514Z 00012KT 07/06 A3032 RMK A01 T00700060  RH  093%=      5-min Rain = 0
KDO2 071515Z 36009KT 07/06 A3032 RMK A01 T00700060  RH  093%=      5-min Rain = 0
KDO2 071516Z 00012KT 07/06 A3032 RMK A01 T00700061  RH  094%=      5-min Rain = 0
KDO2 071517Z 01014KT 07/06 A3032 RMK A01 T00700060  RH  093%=      5-min Rain = 0
KDO2 071518Z 36015KT 07/06 A3032 RMK A01 T00690059  RH  093%=      5-min Rain = 0
KDO2 071519Z 36015KT 07/06 A3032 RMK A01 T00690059  RH  093%=      5-min Rain = 0
KDO2 071520Z 35011KT 07/06 A3032 RMK A01 T00690058  RH  093%=      5-min Rain = 0
KDO2 071521Z 36009KT 07/06 A3033 RMK A01 T00690059  RH  094%=      5-min Rain = 0
KDO2 071522Z 36011KT 07/06 A3033 RMK A01 T00690060  RH  094%=      5-min Rain = 0
KDO2 071523Z 35010KT 07/06 A3033 RMK A01 T00690060  RH  094%=      5-min Rain = 0
KDO2 071524Z 35009KT 07/06 A3033 RMK A01 T00690059  RH  094%=      5-min Rain = 0
KDO2 071525Z 34011KT 07/06 A3034 RMK A01 T00680059  RH  094%=      5-min Rain = 0
KDO2 071526Z 35009KT 07/06 A3034 RMK A01 T00680058  RH  094%=      5-min Rain = 0
KDO2 071527Z 35009KT 07/06 A3034 RMK A01 T00670058  RH  094%=      5-min Rain = 0
KDO2 071528Z 35011KT 07/06 A3034 RMK A01 T00680058  RH  094%=      5-min Rain = 0
KDO2 071529Z 35011KT 07/06 A3034 RMK A01 T00670057  RH  094%=      5-min Rain = 0
KDO2 071530Z 36008KT 07/06 A3034 RMK A01 T00670058  RH  094%=      5-min Rain = 0
KDO2 071531Z 36009KT 07/06 A3034 RMK A01 T00670058  RH  094%=      5-min Rain = 0
KDO2 071532Z 36009G15KT 07/06 A3035 RMK A01 T00670058  RH  094%=      5-min Rain = 0
KDO2 071533Z 35011KT 07/06 A3035 RMK A01 T00670058  RH  094%=      5-min Rain = 0
KDO2 071534Z 34011KT 07/06 A3035 RMK A01 T00670057  RH  093%=      5-min Rain = 0
KDO2 071535Z 01011KT 07/06 A3035 RMK A01 T00660055  RH  093%=      5-min Rain = 0
KDO2 071536Z 01008KT 07/06 A3035 RMK A01 T00660055  RH  093%=      5-min Rain = 0
KDO2 071537Z 01008G13KT 07/06 A3035 RMK A01 T00660056  RH  093%=      5-min Rain = 0
KDO2 071538Z 01008KT 07/06 A3035 RMK A01 T00660056  RH  093%=      5-min Rain = 0
KDO2 071539Z 01011KT 07/06 A3035 RMK A01 T00660056  RH  093%=      5-min Rain = 0
KDO2 071540Z 00008KT 07/05 A3035 RMK A01 T00650054  RH  093%=      5-min Rain = 0
KDO2 071541Z 36008KT 06/06 A3035 RMK A01 T00640055  RH  094%=      5-min Rain = 0
KDO2 071542Z 35008KT 06/06 A3035 RMK A01 T00640055  RH  094%=      5-min Rain = 0
KDO2 071543Z 35008KT 07/06 A3035 RMK A01 T00650056  RH  094%=      5-min Rain = 0
KDO2 071544Z 34009KT 07/06 A3035 RMK A01 T00650057  RH  095%=      5-min Rain = 0
KDO2 071545Z 34008KT 07/06 A3035 RMK A01 T00660058  RH  095%=      5-min Rain = 0
KDO2 071546Z 34009KT 07/06 A3036 RMK A01 T00660058  RH  095%=      5-min Rain = 0
KDO2 071547Z 34010KT 07/06 A3035 RMK A01 T00660058  RH  095%=      5-min Rain = 0
KDO2 071548Z 00009KT 07/06 A3035 RMK A01 T00660058  RH  095%=      5-min Rain = 0
KDO2 071549Z 00011KT 07/06 A3035 RMK A01 T00660058  RH  095%=      5-min Rain = 0
KDO2 071550Z 36011KT 07/06 A3035 RMK A01 T00650057  RH  095%=      5-min Rain = 0
KDO2 071551Z 35009KT 07/06 A3035 RMK A01 T00650057  RH  095%=      5-min Rain = 0
KDO2 071552Z 00009KT 07/06 A3035 RMK A01 T00650057  RH  095%=      5-min Rain = 0
KDO2 071553Z 01009KT 07/06 A3035 RMK A01 T00650058  RH  095%=      5-min Rain = 0
KDO2 071554Z 00009KT 07/06 A3035 RMK A01 T00650058  RH  095%=      5-min Rain = 0
KDO2 071555Z 01009KT 06/06 A3035 RMK A01 T00640057  RH  095%=      5-min Rain = 0
KDO2 071556Z 02010KT 06/06 A3035 RMK A01 T00640056  RH  095%=      5-min Rain = 0
KDO2 071557Z 01010KT 06/06 A3035 RMK A01 T00640056  RH  095%=      5-min Rain = 0.01
KDO2 071558Z 02009KT 06/06 A3035 RMK A01 T00630056  RH  095%=      5-min Rain = 0
KDO2 071559Z 02010KT 06/06 A3035 RMK A01 T00630055  RH  095%=      5-min Rain = 0
KDO2 071600Z 02010KT 06/06 A3035 RMK A01 T00630055  RH  095%=      5-min Rain = 0
KDO2 071601Z 02010KT 06/05 A3035 RMK A01 T00620054  RH  095%=      5-min Rain = 0
KDO2 071602Z 01008KT 06/06 A3035 RMK A01 T00620055  RH  095%=      5-min Rain = 0
KDO2 071603Z 01010KT 06/06 A3035 RMK A01 T00620055  RH  095%=      5-min Rain = 0
KDO2 071604Z 01009KT 06/05 A3035 RMK A01 T00620054  RH  095%=      5-min Rain = 0
KDO2 071605Z 01008KT 06/06 A3035 RMK A01 T00620055  RH  095%=      5-min Rain = 0
KDO2 071606Z 01009KT 06/06 A3035 RMK A01 T00630056  RH  096%=      5-min Rain = 0
KDO2 071607Z 01010KT 06/06 A3035 RMK A01 T00630057  RH  096%=      5-min Rain = 0
KDO2 071608Z 01009KT 06/06 A3035 RMK A01 T00620055  RH  095%=      5-min Rain = 0
KDO2 071609Z 00008KT 06/06 A3035 RMK A01 T00620056  RH  095%=      5-min Rain = 0
KDO2 071610Z 01009KT 06/06 A3035 RMK A01 T00630056  RH  096%=      5-min Rain = 0
KDO2 071611Z 01009KT 06/06 A3035 RMK A01 T00630056  RH  096%=      5-min Rain = 0
KDO2 071612Z 01010KT 06/06 A3035 RMK A01 T00630056  RH  096%=      5-min Rain = 0
KDO2 071613Z 01011KT 06/06 A3035 RMK A01 T00630056  RH  096%=      5-min Rain = 0
KDO2 071614Z 00010KT 06/06 A3035 RMK A01 T00630056  RH  096%=      5-min Rain = 0
KDO2 071615Z 01010KT 06/06 A3035 RMK A01 T00630057  RH  096%=      5-min Rain = 0
KDO2 071616Z 01011KT 06/06 A3035 RMK A01 T00630057  RH  096%=      5-min Rain = 0
KDO2 071617Z 01012KT 06/06 A3035 RMK A01 T00630057  RH  096%=      5-min Rain = 0
KDO2 071618Z 01011KT 06/06 A3035 RMK A01 T00630056  RH  096%=      5-min Rain = 0
KDO2 071619Z 01011KT 06/06 A3035 RMK A01 T00630057  RH  095%=      5-min Rain = 0
KDO2 071620Z 36009KT 06/06 A3035 RMK A01 T00630056  RH  095%=      5-min Rain = 0
KDO2 071621Z 00010KT 06/06 A3035 RMK A01 T00640057  RH  096%=      5-min Rain = 0
KDO2 071622Z 00008G13KT 06/06 A3036 RMK A01 T00640057  RH  096%=      5-min Rain = 0
KDO2 071623Z 36008KT 06/06 A3036 RMK A01 T00640058  RH  096%=      5-min Rain = 0
KDO2 071624Z 01009KT 06/06 A3035 RMK A01 T00640058  RH  096%=      5-min Rain = 0
KDO2 071625Z 01009KT 06/06 A3035 RMK A01 T00630056  RH  095%=      5-min Rain = 0
KDO2 071626Z 01011KT 06/06 A3035 RMK A01 T00630056  RH  095%=      5-min Rain = 0
KDO2 071627Z 01012KT 06/06 A3035 RMK A01 T00630056  RH  095%=      5-min Rain = 0
KDO2 071628Z 01009KT 06/06 A3035 RMK A01 T00630055  RH  095%=      5-min Rain = 0
KDO2 071629Z 01009KT 06/06 A3035 RMK A01 T00620055  RH  095%=      5-min Rain = 0
KDO2 071630Z 01011KT 06/05 A3034 RMK A01 T00620054  RH  095%=      5-min Rain = 0
KDO2 071631Z 02011KT 06/05 A3034 RMK A01 T00620054  RH  095%=      5-min Rain = 0
KDO2 071632Z 03011KT 06/05 A3034 RMK A01 T00620053  RH  095%=      5-min Rain = 0
KDO2 071633Z 02010KT 06/06 A3034 RMK A01 T00620055  RH  095%=      5-min Rain = 0
KDO2 071634Z 02010KT 06/06 A3034 RMK A01 T00630055  RH  095%=      5-min Rain = 0
KDO2 071635Z 02010KT 06/06 A3034 RMK A01 T00630055  RH  095%=      5-min Rain = 0
KDO2 071636Z 02011KT 06/06 A3034 RMK A01 T00630055  RH  095%=      5-min Rain = 0
KDO2 071637Z 02012KT 06/06 A3034 RMK A01 T00630055  RH  095%=      5-min Rain = 0
KDO2 071638Z 02011KT 06/06 A3034 RMK A01 T00630055  RH  095%=      5-min Rain = 0
KDO2 071639Z 02011KT 06/06 A3034 RMK A01 T00620055  RH  095%=      5-min Rain = 0
KDO2 071640Z 02010KT 06/05 A3034 RMK A01 T00620054  RH  095%=      5-min Rain = 0
KDO2 071641Z 02012KT 06/06 A3034 RMK A01 T00620055  RH  095%=      5-min Rain = 0
KDO2 071642Z 02009KT 06/05 A3035 RMK A01 T00620054  RH  094%=      5-min Rain = 0
KDO2 071643Z 36011G16KT 06/06 A3035 RMK A01 T00620055  RH  095%=      5-min Rain = 0
KDO2 071644Z 00013KT 06/06 A3035 RMK A01 T00630055  RH  095%=      5-min Rain = 0
KDO2 071645Z 00012KT 06/05 A3035 RMK A01 T00620054  RH  095%=      5-min Rain = 0
KDO2 071646Z 00009KT 06/05 A3035 RMK A01 T00610053  RH  095%=      5-min Rain = 0
KDO2 071647Z 00011KT 06/06 A3035 RMK A01 T00620055  RH  095%=      5-min Rain = 0
KDO2 071648Z 00010KT 06/06 A3035 RMK A01 T00620055  RH  095%=      5-min Rain = 0
KDO2 071649Z 01012KT 06/06 A3035 RMK A01 T00620055  RH  095%=      5-min Rain = 0
KDO2 071650Z 00009KT 06/06 A3035 RMK A01 T00620055  RH  095%=      5-min Rain = 0
KDO2 071651Z 00008KT 06/06 A3035 RMK A01 T00630057  RH  096%=      5-min Rain = 0
KDO2 071652Z 00008KT 06/06 A3035 RMK A01 T00640058  RH  096%=      5-min Rain = 0
KDO2 071653Z 00008KT 06/06 A3035 RMK A01 T00640058  RH  096%=      5-min Rain = 0
KDO2 071654Z 35010KT 06/06 A3035 RMK A01 T00630057  RH  096%=      5-min Rain = 0
KDO2 071655Z 35010KT 06/06 A3035 RMK A01 T00640057  RH  096%=      5-min Rain = 0
KDO2 071656Z 34009KT 06/06 A3035 RMK A01 T00630057  RH  096%=      5-min Rain = 0
KDO2 071657Z 35013KT 06/06 A3035 RMK A01 T00630057  RH  096%=      5-min Rain = 0
KDO2 071658Z 35011G16KT 06/06 A3035 RMK A01 T00620055  RH  095%=      5-min Rain = 0
KDO2 071659Z 35014KT 06/05 A3035 RMK A01 T00620054  RH  095%=      5-min Rain = 0
KDO2 071700Z 35012KT 06/05 A3035 RMK A01 T00600052  RH  094%=      5-min Rain = 0
KDO2 071701Z 35015KT 06/05 A3035 RMK A01 T00600051  RH  094%=      5-min Rain = 0
KDO2 071702Z 34014KT 06/05 A3035 RMK A01 T00590049  RH  094%=      5-min Rain = 0
KDO2 071703Z 35013KT 06/05 A3035 RMK A01 T00590049  RH  094%=      5-min Rain = 0
KDO2 071704Z 35014KT 06/05 A3035 RMK A01 T00590050  RH  094%=      5-min Rain = 0
KDO2 071705Z 35011KT 06/05 A3035 RMK A01 T00590050  RH  094%=      5-min Rain = 0
KDO2 071706Z 34012KT 06/05 A3035 RMK A01 T00590050  RH  094%=      5-min Rain = 0
KDO2 071707Z 35013KT 06/05 A3035 RMK A01 T00590050  RH  094%=      5-min Rain = 0
KDO2 071708Z 35013KT 06/05 A3035 RMK A01 T00590050  RH  094%=      5-min Rain = 0
KDO2 071709Z 35014KT 06/05 A3035 RMK A01 T00580049  RH  094%=      5-min Rain = 0
KDO2 071710Z 35013KT 06/05 A3035 RMK A01 T00570048  RH  094%=      5-min Rain = 0
KDO2 071711Z 35014KT 06/05 A3035 RMK A01 T00580048  RH  094%=      5-min Rain = 0
KDO2 071712Z 34012KT 06/05 A3035 RMK A01 T00580048  RH  094%=      5-min Rain = 0
KDO2 071713Z 34014KT 06/05 A3036 RMK A01 T00580048  RH  094%=      5-min Rain = 0
KDO2 071714Z 34014KT 06/05 A3036 RMK A01 T00570048  RH  093%=      5-min Rain = 0
KDO2 071715Z 35014KT 06/05 A3036 RMK A01 T00570046  RH  093%=      5-min Rain = 0
KDO2 071716Z 34012KT 06/05 A3036 RMK A01 T00570046  RH  093%=      5-min Rain = 0
KDO2 071717Z 35011KT 06/05 A3036 RMK A01 T00570046  RH  093%=      5-min Rain = 0
KDO2 071718Z 35012KT 06/05 A3036 RMK A01 T00570047  RH  093%=      5-min Rain = 0
KDO2 071719Z 35012KT 06/05 A3036 RMK A01 T00560046  RH  093%=      5-min Rain = 0
KDO2 071720Z 35011KT 06/05 A3036 RMK A01 T00560046  RH  093%=      5-min Rain = 0
KDO2 071721Z 35009KT 06/05 A3036 RMK A01 T00560046  RH  093%=      5-min Rain = 0
KDO2 071722Z 34011KT 06/05 A3036 RMK A01 T00570048  RH  094%=      5-min Rain = 0
KDO2 071723Z 35014KT 06/05 A3036 RMK A01 T00560046  RH  093%=      5-min Rain = 0
KDO2 071724Z 35012KT 06/05 A3036 RMK A01 T00560045  RH  093%=      5-min Rain = 0
KDO2 071725Z 34012KT 06/04 A3036 RMK A01 T00560044  RH  092%=      5-min Rain = 0
KDO2 071726Z 35012KT 06/04 A3036 RMK A01 T00550043  RH  092%=      5-min Rain = 0
KDO2 071727Z 35013KT 06/04 A3036 RMK A01 T00550042  RH  092%=      5-min Rain = 0
KDO2 071728Z 35013G18KT 05/04 A3036 RMK A01 T00540041  RH  091%=      5-min Rain = 0
KDO2 071729Z 35011KT 05/04 A3036 RMK A01 T00540041  RH  092%=      5-min Rain = 0
KDO2 071730Z 36012KT 05/04 A3036 RMK A01 T00540042  RH  092%=      5-min Rain = 0
KDO2 071731Z 36012KT 05/04 A3036 RMK A01 T00540041  RH  092%=      5-min Rain = 0
KDO2 071732Z 00014KT 05/04 A3036 RMK A01 T00540042  RH  092%=      5-min Rain = 0
KDO2 071733Z 35013KT 05/04 A3036 RMK A01 T00540041  RH  092%=      5-min Rain = 0
KDO2 071734Z 36012KT 05/04 A3036 RMK A01 T00530041  RH  092%=      5-min Rain = 0
KDO2 071735Z 00014KT 05/04 A3036 RMK A01 T00540041  RH  092%=      5-min Rain = 0
KDO2 071736Z 01012KT 05/04 A3036 RMK A01 T00540040  RH  091%=      5-min Rain = 0
KDO2 071737Z 01011KT 05/04 A3036 RMK A01 T00540041  RH  091%=      5-min Rain = 0
KDO2 071738Z 01010KT 05/04 A3036 RMK A01 T00540041  RH  091%=      5-min Rain = 0
KDO2 071739Z 02012KT 05/04 A3036 RMK A01 T00540041  RH  091%=      5-min Rain = 0
KDO2 071740Z 01009KT 05/04 A3036 RMK A01 T00540041  RH  091%=      5-min Rain = 0
KDO2 071741Z 01008KT 06/04 A3036 RMK A01 T00550042  RH  091%=      5-min Rain = 0
KDO2 071742Z 02012KT 06/04 A3036 RMK A01 T00550041  RH  091%=      5-min Rain = 0
KDO2 071743Z 01010KT 05/04 A3036 RMK A01 T00540039  RH  090%=      5-min Rain = 0
KDO2 071744Z 01010KT 05/04 A3036 RMK A01 T00540041  RH  091%=      5-min Rain = 0
KDO2 071745Z 01014KT 05/04 A3035 RMK A01 T00540040  RH  090%=      5-min Rain = 0
KDO2 071746Z 36010KT 05/04 A3036 RMK A01 T00540038  RH  090%=      5-min Rain = 0
KDO2 071747Z 00012KT 06/04 A3036 RMK A01 T00550040  RH  090%=      5-min Rain = 0
KDO2 071748Z 00011KT 06/04 A3036 RMK A01 T00550041  RH  091%=      5-min Rain = 0
KDO2 071749Z 01012KT 06/04 A3036 RMK A01 T00550041  RH  091%=      5-min Rain = 0
KDO2 071750Z 02011KT 06/04 A3036 RMK A01 T00560042  RH  091%=      5-min Rain = 0
KDO2 071751Z 02009KT 06/04 A3036 RMK A01 T00560041  RH  090%=      5-min Rain = 0
KDO2 071752Z 01011KT 06/04 A3036 RMK A01 T00550040  RH  090%=      5-min Rain = 0
KDO2 071753Z 02012KT 06/04 A3036 RMK A01 T00550038  RH  089%=      5-min Rain = 0
KDO2 071754Z 02011KT 05/04 A3036 RMK A01 T00540038  RH  089%=      5-min Rain = 0
KDO2 071755Z 01012KT 05/04 A3036 RMK A01 T00540038  RH  090%=      5-min Rain = 0
KDO2 071756Z 01013KT 05/04 A3036 RMK A01 T00540038  RH  089%=      5-min Rain = 0
KDO2 071757Z 01011KT 05/04 A3036 RMK A01 T00540037  RH  089%=      5-min Rain = 0
KDO2 071758Z 01009KT 05/04 A3036 RMK A01 T00540039  RH  090%=      5-min Rain = 0
KDO2 071759Z 00008KT 06/04 A3036 RMK A01 T00550042  RH  091%=      5-min Rain = 0
KDO2 071800Z 00011KT 06/04 A3036 RMK A01 T00550043  RH  091%=      5-min Rain = 0
KDO2 071801Z 01009KT 06/04 A3036 RMK A01 T00560042  RH  091%=      5-min Rain = 0
KDO2 071802Z 02010KT 06/04 A3036 RMK A01 T00550042  RH  091%=      5-min Rain = 0
KDO2 071803Z 01008KT 06/04 A3036 RMK A01 T00550040  RH  090%=      5-min Rain = 0
KDO2 071804Z 00007KT 06/04 A3036 RMK A01 T00550042  RH  091%=      5-min Rain = 0
KDO2 071805Z 01008KT 06/04 A3036 RMK A01 T00550043  RH  092%=      5-min Rain = 0
KDO2 071806Z 01009KT 06/04 A3036 RMK A01 T00550043  RH  092%=      5-min Rain = 0
KDO2 071807Z 01010KT 06/04 A3036 RMK A01 T00550043  RH  092%=      5-min Rain = 0
KDO2 071808Z 00011KT 06/04 A3036 RMK A01 T00550042  RH  091%=      5-min Rain = 0
KDO2 071809Z 00010KT 06/04 A3036 RMK A01 T00550042  RH  091%=      5-min Rain = 0
KDO2 071810Z 00008KT 06/04 A3036 RMK A01 T00550041  RH  091%=      5-min Rain = 0
KDO2 071811Z 00009KT 06/04 A3036 RMK A01 T00550043  RH  092%=      5-min Rain = 0
KDO2 071812Z 00010KT 06/04 A3036 RMK A01 T00550042  RH  092%=      5-min Rain = 0
KDO2 071813Z 02008KT 06/04 A3036 RMK A01 T00550042  RH  092%=      5-min Rain = 0
KDO2 071814Z 36009KT 06/04 A3036 RMK A01 T00550043  RH  092%=      5-min Rain = 0
KDO2 071815Z 36012G17KT 06/04 A3036 RMK A01 T00550044  RH  092%=      5-min Rain = 0
KDO2 071816Z 36011KT 06/04 A3036 RMK A01 T00550043  RH  092%=      5-min Rain = 0
KDO2 071817Z 01010KT 06/04 A3036 RMK A01 T00550042  RH  091%=      5-min Rain = 0
KDO2 071818Z 36009G14KT 06/04 A3036 RMK A01 T00550043  RH  092%=      5-min Rain = 0
KDO2 071819Z 34013KT 06/04 A3036 RMK A01 T00550043  RH  092%=      5-min Rain = 0
KDO2 071820Z 35011KT 06/04 A3036 RMK A01 T00550042  RH  091%=      5-min Rain = 0
KDO2 071821Z 36015KT 05/04 A3036 RMK A01 T00540039  RH  090%=      5-min Rain = 0
KDO2 071822Z 35014KT 05/04 A3036 RMK A01 T00530037  RH  089%=      5-min Rain = 0
KDO2 071823Z 00010KT 05/04 A3036 RMK A01 T00530037  RH  089%=      5-min Rain = 0
KDO2 071824Z 00012KT 05/04 A3036 RMK A01 T00530039  RH  091%=      5-min Rain = 0
KDO2 071825Z 01011KT 05/04 A3036 RMK A01 T00520038  RH  091%=      5-min Rain = 0
KDO2 071826Z 01008KT 05/04 A3036 RMK A01 T00530040  RH  091%=      5-min Rain = 0
KDO2 071827Z 01009KT 05/04 A3036 RMK A01 T00540042  RH  092%=      5-min Rain = 0
KDO2 071828Z 00011KT 05/04 A3037 RMK A01 T00530039  RH  091%=      5-min Rain = 0
KDO2 071829Z 00010KT 05/04 A3037 RMK A01 T00530037  RH  090%=      5-min Rain = 0
KDO2 071830Z 01010KT 05/04 A3037 RMK A01 T00530037  RH  090%=      5-min Rain = 0
KDO2 071831Z 00011KT 05/04 A3036 RMK A01 T00520036  RH  089%=      5-min Rain = 0
KDO2 071832Z 01010KT 05/04 A3036 RMK A01 T00520035  RH  089%=      5-min Rain = 0
KDO2 071833Z 01011KT 05/04 A3036 RMK A01 T00520035  RH  089%=      5-min Rain = 0
KDO2 071834Z 01011KT 05/04 A3036 RMK A01 T00520035  RH  089%=      5-min Rain = 0
KDO2 071835Z 00009KT 05/04 A3036 RMK A01 T00520036  RH  090%=      5-min Rain = 0
KDO2 071836Z 01010KT 05/04 A3036 RMK A01 T00520035  RH  089%=      5-min Rain = 0
KDO2 071837Z 01008KT 05/04 A3036 RMK A01 T00520036  RH  090%=      5-min Rain = 0
KDO2 071838Z 01008KT 05/04 A3035 RMK A01 T00520039  RH  091%=      5-min Rain = 0
KDO2 071839Z 02012KT 05/04 A3035 RMK A01 T00520039  RH  091%=      5-min Rain = 0
KDO2 071840Z 01012KT 05/04 A3035 RMK A01 T00520038  RH  090%=      5-min Rain = 0
KDO2 071841Z 02012KT 05/04 A3034 RMK A01 T00520038  RH  091%=      5-min Rain = 0
KDO2 071842Z 01011KT 05/04 A3034 RMK A01 T00520038  RH  091%=      5-min Rain = 0
KDO2 071843Z 01012KT 05/04 A3034 RMK A01 T00520038  RH  091%=      5-min Rain = 0
KDO2 071844Z 01011KT 05/04 A3034 RMK A01 T00510038  RH  091%=      5-min Rain = 0
KDO2 071845Z 00009KT 05/04 A3035 RMK A01 T00520038  RH  091%=      5-min Rain = 0
KDO2 071846Z 01011KT 05/04 A3035 RMK A01 T00520038  RH  091%=      5-min Rain = 0
KDO2 071847Z 00009KT 05/04 A3035 RMK A01 T00520037  RH  091%=      5-min Rain = 0
KDO2 071848Z 00010G15KT 05/04 A3035 RMK A01 T00520038  RH  091%=      5-min Rain = 0
KDO2 071849Z 35012KT 05/04 A3035 RMK A01 T00520040  RH  092%=      5-min Rain = 0
KDO2 071850Z 34013KT 05/04 A3035 RMK A01 T00520039  RH  091%=      5-min Rain = 0
KDO2 071851Z 35013KT 05/04 A3035 RMK A01 T00520038  RH  091%=      5-min Rain = 0
KDO2 071852Z 35013KT 05/04 A3035 RMK A01 T00510037  RH  091%=      5-min Rain = 0
KDO2 071853Z 35012KT 05/04 A3035 RMK A01 T00510036  RH  090%=      5-min Rain = 0
KDO2 071854Z 34011KT 05/04 A3035 RMK A01 T00510036  RH  090%=      5-min Rain = 0.01
KDO2 071855Z 34010G15KT 05/04 A3035 RMK A01 T00500036  RH  091%=      5-min Rain = 0
KDO2 071856Z 35011KT 05/04 A3035 RMK A01 T00510038  RH  091%=      5-min Rain = 0
KDO2 071857Z 35012KT 05/04 A3035 RMK A01 T00510038  RH  091%=      5-min Rain = 0
KDO2 071858Z 35013KT 05/04 A3035 RMK A01 T00510037  RH  091%=      5-min Rain = 0
KDO2 071859Z 35009KT 05/04 A3035 RMK A01 T00500036  RH  091%=      5-min Rain = 0
KDO2 071900Z 34011KT 05/04 A3036 RMK A01 T00500037  RH  091%=      5-min Rain = 0
KDO2 071901Z 34012KT 05/04 A3036 RMK A01 T00500037  RH  091%=      5-min Rain = 0
KDO2 071902Z 34012KT 05/04 A3036 RMK A01 T00500036  RH  091%=      5-min Rain = 0
KDO2 071903Z 34013KT 05/04 A3036 RMK A01 T00500035  RH  090%=      5-min Rain = 0
KDO2 071904Z 34012KT 05/04 A3036 RMK A01 T00500035  RH  090%=      5-min Rain = 0
KDO2 071905Z 35012KT 05/04 A3036 RMK A01 T00490035  RH  090%=      5-min Rain = 0
KDO2 071906Z 35012KT 05/04 A3036 RMK A01 T00490035  RH  091%=      5-min Rain = 0
KDO2 071907Z 35011G16KT 05/04 A3035 RMK A01 T00490035  RH  091%=      5-min Rain = 0
KDO2 071908Z 35012KT 05/04 A3035 RMK A01 T00490035  RH  091%=      5-min Rain = 0
KDO2 071909Z 35011KT 05/04 A3035 RMK A01 T00490035  RH  091%=      5-min Rain = 0.01
KDO2 071910Z 36011KT 05/04 A3035 RMK A01 T00490036  RH  091%=      5-min Rain = 0
KDO2 071911Z 36011KT 05/04 A3034 RMK A01 T00490035  RH  091%=      5-min Rain = 0
KDO2 071912Z 01010KT 05/04 A3034 RMK A01 T00490036  RH  091%=      5-min Rain = 0
KDO2 071913Z 36008KT 05/04 A3035 RMK A01 T00490036  RH  091%=      5-min Rain = 0
KDO2 071914Z 00011KT 05/04 A3035 RMK A01 T00500038  RH  092%=      5-min Rain = 0
KDO2 071915Z 01007G12KT 05/04 A3035 RMK A01 T00500037  RH  091%=      5-min Rain = 0
KDO2 071916Z 01008KT 05/04 A3035 RMK A01 T00500037  RH  092%=      5-min Rain = 0
KDO2 071917Z 00009KT 05/04 A3035 RMK A01 T00500037  RH  092%=      5-min Rain = 0
KDO2 071918Z 01010KT 05/04 A3035 RMK A01 T00500036  RH  091%=      5-min Rain = 0
KDO2 071919Z 01008KT 05/04 A3035 RMK A01 T00500036  RH  091%=      5-min Rain = 0
KDO2 071920Z 36006KT 05/04 A3035 RMK A01 T00500037  RH  092%=      5-min Rain = 0
KDO2 071921Z 00008KT 05/04 A3035 RMK A01 T00500038  RH  092%=      5-min Rain = 0
KDO2 071922Z 01008KT 05/04 A3035 RMK A01 T00500036  RH  091%=      5-min Rain = 0
KDO2 071923Z 00008KT 05/04 A3035 RMK A01 T00500037  RH  091%=      5-min Rain = 0
KDO2 071924Z 01009KT 05/04 A3035 RMK A01 T00500037  RH  091%=      5-min Rain = 0
KDO2 071925Z 01010KT 05/04 A3035 RMK A01 T00500037  RH  091%=      5-min Rain = 0
KDO2 071926Z 01009KT 05/04 A3035 RMK A01 T00500036  RH  091%=      5-min Rain = 0
KDO2 071927Z 01009KT 05/04 A3035 RMK A01 T00500036  RH  091%=      5-min Rain = 0
KDO2 071928Z 01009KT 05/04 A3034 RMK A01 T00500036  RH  091%=      5-min Rain = 0
KDO2 071929Z 01010KT 05/04 A3034 RMK A01 T00500036  RH  091%=      5-min Rain = 0
KDO2 071930Z 01010KT 05/04 A3034 RMK A01 T00500035  RH  090%=      5-min Rain = 0
KDO2 071931Z 36008KT 05/04 A3034 RMK A01 T00500035  RH  090%=      5-min Rain = 0
KDO2 071932Z 36010KT 05/04 A3034 RMK A01 T00510037  RH  091%=      5-min Rain = 0
KDO2 071933Z 00009KT 05/04 A3035 RMK A01 T00510037  RH  091%=      5-min Rain = 0
KDO2 071934Z 36009KT 05/04 A3035 RMK A01 T00510037  RH  090%=      5-min Rain = 0
KDO2 071935Z 35009KT 05/04 A3035 RMK A01 T00520037  RH  090%=      5-min Rain = 0
KDO2 071936Z 34011KT 05/04 A3035 RMK A01 T00520036  RH  090%=      5-min Rain = 0
KDO2 071937Z 34011KT 05/04 A3035 RMK A01 T00520036  RH  090%=      5-min Rain = 0
KDO2 071938Z 35011KT 05/04 A3035 RMK A01 T00510036  RH  090%=      5-min Rain = 0
KDO2 071939Z 34009KT 05/04 A3035 RMK A01 T00510037  RH  090%=      5-min Rain = 0
KDO2 071940Z 34010KT 05/04 A3035 RMK A01 T00520038  RH  091%=      5-min Rain = 0
KDO2 071941Z 35012KT 05/04 A3035 RMK A01 T00520037  RH  090%=      5-min Rain = 0
KDO2 071942Z 33010KT 05/04 A3035 RMK A01 T00510036  RH  090%=      5-min Rain = 0
KDO2 071943Z 34013KT 05/04 A3035 RMK A01 T00510037  RH  090%=      5-min Rain = 0
KDO2 071944Z 33012KT 05/04 A3035 RMK A01 T00510036  RH  090%=      5-min Rain = 0
KDO2 071945Z 33014KT 05/04 A3035 RMK A01 T00510036  RH  090%=      5-min Rain = 0
KDO2 071946Z 34014KT 05/03 A3035 RMK A01 T00500034  RH  089%=      5-min Rain = 0
KDO2 071947Z 35011KT 05/03 A3035 RMK A01 T00500033  RH  089%=      5-min Rain = 0
KDO2 071948Z 35010KT 05/03 A3035 RMK A01 T00490033  RH  089%=      5-min Rain = 0
KDO2 071949Z 36009KT 05/04 A3035 RMK A01 T00500035  RH  090%=      5-min Rain = 0
KDO2 071950Z 35012KT 05/04 A3035 RMK A01 T00500035  RH  090%=      5-min Rain = 0
KDO2 071951Z 00010KT 05/03 A3035 RMK A01 T00490034  RH  090%=      5-min Rain = 0
KDO2 071952Z 00011KT 05/03 A3035 RMK A01 T00490034  RH  090%=      5-min Rain = 0
KDO2 071953Z 00011KT 05/03 A3035 RMK A01 T00490034  RH  090%=      5-min Rain = 0
KDO2 071954Z 00011KT 05/03 A3035 RMK A01 T00490033  RH  089%=      5-min Rain = 0
KDO2 071955Z 00012KT 05/03 A3035 RMK A01 T00490032  RH  089%=      5-min Rain = 0
KDO2 071956Z 36011KT 05/03 A3035 RMK A01 T00490033  RH  089%=      5-min Rain = 0
KDO2 071957Z 36010KT 05/03 A3035 RMK A01 T00500034  RH  089%=      5-min Rain = 0
KDO2 071958Z 35012KT 05/03 A3035 RMK A01 T00500033  RH  089%=      5-min Rain = 0
KDO2 071959Z 36012KT 05/03 A3035 RMK A01 T00500033  RH  089%=      5-min Rain = 0
KDO2 072000Z 35011KT 05/03 A3035 RMK A01 T00500032  RH  088%=      5-min Rain = 0
KDO2 072001Z 36010KT 05/03 A3035 RMK A01 T00500032  RH  088%=      5-min Rain = 0
KDO2 072002Z 01010KT 05/03 A3034 RMK A01 T00500033  RH  089%=      5-min Rain = 0
KDO2 072003Z 01008KT 05/03 A3034 RMK A01 T00500033  RH  089%=      5-min Rain = 0
KDO2 072004Z 01010KT 05/03 A3034 RMK A01 T00500034  RH  089%=      5-min Rain = 0
KDO2 072005Z 01009KT 05/03 A3034 RMK A01 T00500032  RH  089%=      5-min Rain = 0
KDO2 072006Z 01008KT 05/03 A3034 RMK A01 T00500034  RH  089%=      5-min Rain = 0
KDO2 072007Z 36009KT 05/04 A3035 RMK A01 T00500035  RH  090%=      5-min Rain = 0
KDO2 072008Z 35011KT 05/04 A3035 RMK A01 T00510035  RH  089%=      5-min Rain = 0
KDO2 072009Z 35010KT 05/03 A3035 RMK A01 T00500032  RH  088%=      5-min Rain = 0
KDO2 072010Z 35009KT 05/03 A3035 RMK A01 T00500033  RH  089%=      5-min Rain = 0
KDO2 072011Z 35009KT 05/03 A3035 RMK A01 T00500034  RH  089%=      5-min Rain = 0
KDO2 072012Z 35008KT 05/03 A3035 RMK A01 T00500034  RH  089%=      5-min Rain = 0
KDO2 072013Z 00012KT 05/04 A3034 RMK A01 T00510035  RH  089%=      5-min Rain = 0
KDO2 072014Z 00012KT 05/03 A3034 RMK A01 T00500032  RH  088%=      5-min Rain = 0
KDO2 072015Z 36012KT 05/03 A3034 RMK A01 T00500030  RH  087%=      5-min Rain = 0
KDO2 072016Z 35013KT 05/03 A3034 RMK A01 T00500030  RH  087%=      5-min Rain = 0
KDO2 072017Z 35011KT 05/03 A3034 RMK A01 T00500029  RH  087%=      5-min Rain = 0
KDO2 072018Z 35011KT 05/03 A3034 RMK A01 T00500030  RH  087%=      5-min Rain = 0
KDO2 072019Z 35012KT 05/03 A3034 RMK A01 T00500030  RH  087%=      5-min Rain = 0
KDO2 072020Z 36012KT 05/03 A3034 RMK A01 T00490028  RH  086%=      5-min Rain = 0
KDO2 072021Z 35013KT 05/03 A3034 RMK A01 T00490027  RH  086%=      5-min Rain = 0
KDO2 072022Z 36011KT 05/03 A3034 RMK A01 T00490026  RH  086%=      5-min Rain = 0
KDO2 072023Z 35010KT 05/03 A3034 RMK A01 T00490028  RH  087%=      5-min Rain = 0
KDO2 072024Z 36010KT 05/03 A3034 RMK A01 T00490029  RH  087%=      5-min Rain = 0
KDO2 072025Z 01009KT 05/03 A3034 RMK A01 T00490029  RH  087%=      5-min Rain = 0
KDO2 072026Z 00010KT 05/03 A3034 RMK A01 T00490030  RH  087%=      5-min Rain = 0
KDO2 072027Z 35007KT 05/03 A3034 RMK A01 T00490030  RH  088%=      5-min Rain = 0
KDO2 072028Z 36012KT 05/03 A3034 RMK A01 T00500031  RH  088%=      5-min Rain = 0
KDO2 072029Z 36010KT 05/03 A3034 RMK A01 T00500029  RH  086%=      5-min Rain = 0
KDO2 072030Z 36010KT 05/03 A3034 RMK A01 T00490029  RH  087%=      5-min Rain = 0
KDO2 072031Z 36011KT 05/03 A3034 RMK A01 T00490030  RH  087%=      5-min Rain = 0
KDO2 072032Z 36010KT 05/03 A3034 RMK A01 T00500031  RH  087%=      5-min Rain = 0
KDO2 072033Z 35009KT 05/03 A3035 RMK A01 T00500031  RH  088%=      5-min Rain = 0
KDO2 072034Z 35008KT 05/03 A3035 RMK A01 T00510033  RH  088%=      5-min Rain = 0
KDO2 072035Z 34010KT 05/03 A3035 RMK A01 T00510033  RH  088%=      5-min Rain = 0
KDO2 072036Z 34009KT 05/03 A3035 RMK A01 T00510032  RH  087%=      5-min Rain = 0
KDO2 072037Z 34011KT 05/03 A3035 RMK A01 T00510032  RH  088%=      5-min Rain = 0
KDO2 072038Z 35011KT 05/03 A3035 RMK A01 T00510031  RH  087%=      5-min Rain = 0
KDO2 072039Z 34010KT 05/03 A3035 RMK A01 T00510032  RH  087%=      5-min Rain = 0
KDO2 072040Z 34011KT 05/03 A3035 RMK A01 T00520033  RH  088%=      5-min Rain = 0
KDO2 072041Z 35010KT 05/03 A3034 RMK A01 T00520034  RH  088%=      5-min Rain = 0
KDO2 072042Z 34010KT 05/03 A3034 RMK A01 T00520033  RH  088%=      5-min Rain = 0
KDO2 072043Z 34011KT 05/03 A3034 RMK A01 T00520033  RH  088%=      5-min Rain = 0
KDO2 072044Z 33011KT 05/03 A3035 RMK A01 T00520032  RH  087%=      5-min Rain = 0
KDO2 072045Z 33011KT 05/03 A3035 RMK A01 T00520033  RH  087%=      5-min Rain = 0
KDO2 072046Z 33009KT 05/03 A3035 RMK A01 T00520034  RH  088%=      5-min Rain = 0
KDO2 072047Z 33008KT 05/04 A3035 RMK A01 T00530037  RH  089%=      5-min Rain = 0
KDO2 072048Z 33010KT 05/04 A3035 RMK A01 T00540037  RH  089%=      5-min Rain = 0
KDO2 072049Z 35009KT 05/04 A3035 RMK A01 T00540035  RH  088%=      5-min Rain = 0
KDO2 072050Z 35011KT 05/04 A3035 RMK A01 T00530035  RH  088%=      5-min Rain = 0
KDO2 072051Z 35011KT 05/03 A3035 RMK A01 T00520033  RH  087%=      5-min Rain = 0
KDO2 072052Z 34009KT 05/03 A3035 RMK A01 T00520033  RH  087%=      5-min Rain = 0
KDO2 072053Z 35013KT 05/03 A3034 RMK A01 T00520034  RH  088%=      5-min Rain = 0
KDO2 072054Z 35012KT 05/03 A3034 RMK A01 T00510031  RH  087%=      5-min Rain = 0
KDO2 072055Z 35015KT 05/03 A3034 RMK A01 T00510031  RH  087%=      5-min Rain = 0
KDO2 072056Z 35011KT 05/03 A3034 RMK A01 T00500031  RH  087%=      5-min Rain = 0
KDO2 072057Z 34011KT 05/03 A3034 RMK A01 T00500032  RH  088%=      5-min Rain = 0
KDO2 072058Z 34011KT 05/03 A3034 RMK A01 T00500031  RH  087%=      5-min Rain = 0
KDO2 072059Z 34012KT 05/03 A3035 RMK A01 T00500031  RH  087%=      5-min Rain = 0
KDO2 072100Z 34011KT 05/03 A3035 RMK A01 T00500030  RH  087%=      5-min Rain = 0
KDO2 072101Z 34011KT 05/03 A3035 RMK A01 T00500031  RH  088%=      5-min Rain = 0
KDO2 072102Z 34010KT 05/03 A3035 RMK A01 T00500031  RH  088%=      5-min Rain = 0
KDO2 072103Z 34009KT 05/03 A3035 RMK A01 T00500031  RH  088%=      5-min Rain = 0
KDO2 072104Z 35010KT 05/03 A3035 RMK A01 T00500032  RH  088%=      5-min Rain = 0
KDO2 072105Z 34010KT 05/03 A3035 RMK A01 T00500033  RH  088%=      5-min Rain = 0
KDO2 072106Z 34011KT 05/03 A3035 RMK A01 T00510033  RH  088%=      5-min Rain = 0
KDO2 072107Z 35010KT 05/03 A3035 RMK A01 T00510033  RH  089%=      5-min Rain = 0
KDO2 072108Z 36012KT 05/03 A3034 RMK A01 T00510033  RH  088%=      5-min Rain = 0
KDO2 072109Z 00011KT 05/03 A3034 RMK A01 T00510032  RH  088%=      5-min Rain = 0
KDO2 072110Z 00009KT 05/03 A3034 RMK A01 T00510032  RH  088%=      5-min Rain = 0
KDO2 072111Z 00009KT 05/03 A3034 RMK A01 T00510033  RH  088%=      5-min Rain = 0
KDO2 072112Z 00009KT 05/03 A3034 RMK A01 T00510034  RH  089%=      5-min Rain = 0
KDO2 072113Z 00008KT 05/03 A3034 RMK A01 T00510033  RH  088%=      5-min Rain = 0
KDO2 072114Z 00008KT 05/03 A3034 RMK A01 T00510034  RH  089%=      5-min Rain = 0
KDO2 072115Z 00009KT 05/03 A3034 RMK A01 T00510033  RH  088%=      5-min Rain = 0
KDO2 072116Z 35010KT 05/03 A3034 RMK A01 T00510033  RH  088%=      5-min Rain = 0
KDO2 072117Z 36010KT 05/03 A3034 RMK A01 T00510033  RH  088%=      5-min Rain = 0
KDO2 072118Z 00009KT 05/03 A3034 RMK A01 T00510032  RH  087%=      5-min Rain = 0
KDO2 072119Z 01011KT 05/03 A3034 RMK A01 T00510033  RH  088%=      5-min Rain = 0
KDO2 072120Z 36009KT 05/03 A3034 RMK A01 T00510032  RH  088%=      5-min Rain = 0
KDO2 072121Z 00010KT 05/03 A3034 RMK A01 T00510032  RH  088%=      5-min Rain = 0
KDO2 072122Z 36009KT 05/03 A3034 RMK A01 T00510032  RH  087%=      5-min Rain = 0
KDO2 072123Z 35008KT 05/03 A3034 RMK A01 T00510032  RH  087%=      5-min Rain = 0
KDO2 072124Z 00009KT 05/03 A3034 RMK A01 T00510032  RH  088%=      5-min Rain = 0
KDO2 072125Z 00009KT 05/03 A3034 RMK A01 T00510033  RH  088%=      5-min Rain = 0
KDO2 072126Z 00008KT 05/03 A3034 RMK A01 T00510032  RH  088%=      5-min Rain = 0
KDO2 072127Z 36006KT 05/03 A3034 RMK A01 T00510034  RH  088%=      5-min Rain = 0
KDO2 072128Z 35008KT 05/03 A3034 RMK A01 T00520034  RH  089%=      5-min Rain = 0
KDO2 072129Z 36007KT 05/04 A3034 RMK A01 T00520035  RH  089%=      5-min Rain = 0
KDO2 072130Z 34007KT 05/04 A3034 RMK A01 T00530036  RH  089%=      5-min Rain = 0
KDO2 072131Z 34011KT 05/03 A3034 RMK A01 T00530034  RH  088%=      5-min Rain = 0
KDO2 072132Z 35008KT 05/03 A3034 RMK A01 T00530033  RH  087%=      5-min Rain = 0
KDO2 072133Z 34009KT 05/03 A3034 RMK A01 T00520034  RH  088%=      5-min Rain = 0
KDO2 072134Z 34010KT 05/03 A3034 RMK A01 T00530034  RH  088%=      5-min Rain = 0
KDO2 072135Z 34011KT 05/03 A3034 RMK A01 T00530034  RH  088%=      5-min Rain = 0
KDO2 072136Z 36011KT 05/03 A3034 RMK A01 T00520032  RH  087%=      5-min Rain = 0
KDO2 072137Z 36010KT 05/03 A3034 RMK A01 T00520032  RH  087%=      5-min Rain = 0
KDO2 072138Z 36010KT 05/03 A3034 RMK A01 T00520032  RH  087%=      5-min Rain = 0
KDO2 072139Z 35010KT 05/03 A3034 RMK A01 T00520033  RH  088%=      5-min Rain = 0
KDO2 072140Z 00011KT 05/03 A3034 RMK A01 T00520031  RH  086%=      5-min Rain = 0
KDO2 072141Z 01010KT 05/03 A3034 RMK A01 T00510030  RH  086%=      5-min Rain = 0
KDO2 072142Z 36007KT 05/03 A3034 RMK A01 T00510031  RH  087%=      5-min Rain = 0
KDO2 072143Z 00011KT 05/03 A3034 RMK A01 T00510031  RH  087%=      5-min Rain = 0
KDO2 072144Z 00010KT 05/03 A3034 RMK A01 T00510030  RH  086%=      5-min Rain = 0
KDO2 072145Z 00011KT 05/03 A3034 RMK A01 T00510031  RH  087%=      5-min Rain = 0
KDO2 072146Z 36010KT 05/03 A3034 RMK A01 T00510031  RH  087%=      5-min Rain = 0
KDO2 072147Z 35009KT 05/03 A3034 RMK A01 T00510031  RH  087%=      5-min Rain = 0
KDO2 072148Z 36011KT 05/03 A3034 RMK A01 T00510032  RH  087%=      5-min Rain = 0
KDO2 072149Z 35010KT 05/03 A3035 RMK A01 T00510031  RH  087%=      5-min Rain = 0
KDO2 072150Z 36010KT 05/03 A3035 RMK A01 T00510031  RH  087%=      5-min Rain = 0
KDO2 072151Z 35010KT 05/03 A3035 RMK A01 T00510030  RH  086%=      5-min Rain = 0
KDO2 072152Z 35009KT 05/03 A3035 RMK A01 T00510031  RH  087%=      5-min Rain = 0
KDO2 072153Z 00011KT 05/03 A3035 RMK A01 T00510031  RH  087%=      5-min Rain = 0
KDO2 072154Z 36010KT 05/03 A3035 RMK A01 T00510029  RH  086%=      5-min Rain = 0
KDO2 072155Z 35009KT 05/03 A3034 RMK A01 T00510031  RH  087%=      5-min Rain = 0
KDO2 072156Z 35011KT 05/03 A3034 RMK A01 T00510031  RH  087%=      5-min Rain = 0
KDO2 072157Z 35010KT 05/03 A3035 RMK A01 T00510029  RH  086%=      5-min Rain = 0
KDO2 072158Z 36010KT 05/03 A3035 RMK A01 T00510029  RH  086%=      5-min Rain = 0
KDO2 072159Z 35008KT 05/03 A3035 RMK A01 T00510030  RH  086%=      5-min Rain = 0
KDO2 072200Z 35010KT 05/03 A3035 RMK A01 T00510030  RH  086%=      5-min Rain = 0
KDO2 072201Z 35009KT 05/03 A3035 RMK A01 T00500030  RH  086%=      5-min Rain = 0
KDO2 072202Z 36010KT 05/03 A3035 RMK A01 T00500029  RH  086%=      5-min Rain = 0
KDO2 072203Z 36008KT 05/03 A3035 RMK A01 T00500030  RH  087%=      5-min Rain = 0
KDO2 072204Z 36008KT 05/03 A3035 RMK A01 T00500031  RH  088%=      5-min Rain = 0
KDO2 072205Z 36008KT 05/03 A3035 RMK A01 T00500032  RH  088%=      5-min Rain = 0
KDO2 072206Z 36009KT 05/03 A3035 RMK A01 T00500032  RH  088%=      5-min Rain = 0
KDO2 072207Z 00010KT 05/03 A3035 RMK A01 T00500031  RH  088%=      5-min Rain = 0
KDO2 072208Z 36011KT 05/03 A3035 RMK A01 T00500031  RH  087%=      5-min Rain = 0
KDO2 072209Z 35010KT 05/03 A3035 RMK A01 T00500032  RH  088%=      5-min Rain = 0
KDO2 072210Z 36011KT 05/03 A3035 RMK A01 T00500032  RH  088%=      5-min Rain = 0
KDO2 072211Z 00011KT 05/03 A3035 RMK A01 T00500030  RH  087%=      5-min Rain = 0
KDO2 072212Z 35011KT 05/03 A3035 RMK A01 T00490029  RH  087%=      5-min Rain = 0
KDO2 072213Z 36012KT 05/03 A3035 RMK A01 T00480026  RH  086%=      5-min Rain = 0
KDO2 072214Z 00012KT 05/03 A3035 RMK A01 T00480026  RH  086%=      5-min Rain = 0
KDO2 072215Z 35012KT 05/03 A3035 RMK A01 T00470025  RH  086%=      5-min Rain = 0
KDO2 072216Z 35011KT 05/03 A3035 RMK A01 T00460026  RH  086%=      5-min Rain = 0
KDO2 072217Z 00011KT 05/03 A3035 RMK A01 T00460026  RH  087%=      5-min Rain = 0
KDO2 072218Z 00013KT 05/03 A3035 RMK A01 T00460025  RH  087%=      5-min Rain = 0
KDO2 072219Z 00013KT 05/02 A3035 RMK A01 T00460024  RH  086%=      5-min Rain = 0
KDO2 072220Z 00012KT 05/02 A3035 RMK A01 T00460024  RH  086%=      5-min Rain = 0
KDO2 072221Z 01011KT 05/03 A3035 RMK A01 T00460025  RH  086%=      5-min Rain = 0
KDO2 072222Z 00008KT 05/03 A3035 RMK A01 T00460025  RH  087%=      5-min Rain = 0
KDO2 072223Z 00007KT 05/03 A3035 RMK A01 T00460027  RH  087%=      5-min Rain = 0
KDO2 072224Z 36008KT 05/03 A3035 RMK A01 T00460028  RH  088%=      5-min Rain = 0
KDO2 072225Z 36009KT 05/03 A3036 RMK A01 T00470026  RH  087%=      5-min Rain = 0
KDO2 072226Z 00010KT 05/03 A3036 RMK A01 T00460025  RH  086%=      5-min Rain = 0
KDO2 072227Z 00009KT 05/03 A3036 RMK A01 T00460025  RH  086%=      5-min Rain = 0
KDO2 072228Z 36010KT 05/02 A3036 RMK A01 T00460024  RH  086%=      5-min Rain = 0
KDO2 072229Z 01007KT 05/03 A3035 RMK A01 T00460025  RH  086%=      5-min Rain = 0
KDO2 072230Z 35009KT 05/03 A3035 RMK A01 T00460025  RH  087%=      5-min Rain = 0
KDO2 072231Z 00009KT 05/03 A3036 RMK A01 T00460025  RH  086%=      5-min Rain = 0
KDO2 072232Z 01009KT 05/03 A3036 RMK A01 T00460025  RH  086%=      5-min Rain = 0
KDO2 072233Z 36010KT 05/03 A3036 RMK A01 T00460025  RH  087%=      5-min Rain = 0
KDO2 072234Z 36010KT 05/03 A3036 RMK A01 T00460025  RH  086%=      5-min Rain = 0
KDO2 072235Z 00009KT 05/02 A3036 RMK A01 T00460024  RH  086%=      5-min Rain = 0
KDO2 072236Z 00009KT 05/03 A3036 RMK A01 T00460025  RH  087%=      5-min Rain = 0
KDO2 072237Z 36011KT 05/03 A3036 RMK A01 T00460025  RH  086%=      5-min Rain = 0
KDO2 072238Z 36010KT 05/02 A3036 RMK A01 T00450024  RH  086%=      5-min Rain = 0
KDO2 072239Z 36008KT 05/02 A3036 RMK A01 T00450024  RH  086%=      5-min Rain = 0
KDO2 072240Z 36006KT 05/03 A3036 RMK A01 T00450025  RH  087%=      5-min Rain = 0
KDO2 072241Z 00009KT 05/03 A3036 RMK A01 T00450027  RH  088%=      5-min Rain = 0
KDO2 072242Z 00008KT 05/03 A3036 RMK A01 T00450026  RH  087%=      5-min Rain = 0
KDO2 072243Z 36007KT 05/03 A3036 RMK A01 T00460027  RH  088%=      5-min Rain = 0
KDO2 072244Z 34009KT 05/03 A3036 RMK A01 T00460027  RH  088%=      5-min Rain = 0
KDO2 072245Z 35006KT 05/03 A3037 RMK A01 T00460028  RH  088%=      5-min Rain = 0
KDO2 072246Z 35008KT 05/03 A3037 RMK A01 T00470030  RH  089%=      5-min Rain = 0
KDO2 072247Z 35007KT 05/03 A3037 RMK A01 T00460028  RH  088%=      5-min Rain = 0
KDO2 072248Z 36009KT 05/03 A3037 RMK A01 T00470028  RH  088%=      5-min Rain = 0
KDO2 072249Z 35007KT 05/03 A3036 RMK A01 T00470029  RH  088%=      5-min Rain = 0
KDO2 072250Z 35007KT 05/03 A3036 RMK A01 T00470029  RH  088%=      5-min Rain = 0
KDO2 072251Z 35009KT 05/03 A3036 RMK A01 T00470030  RH  089%=      5-min Rain = 0
KDO2 072252Z 35010KT 05/03 A3036 RMK A01 T00470030  RH  088%=      5-min Rain = 0
KDO2 072253Z 35010KT 05/03 A3036 RMK A01 T00470029  RH  088%=      5-min Rain = 0
KDO2 072254Z 00009KT 05/03 A3036 RMK A01 T00470029  RH  088%=      5-min Rain = 0
KDO2 072255Z 34012KT 05/03 A3036 RMK A01 T00470030  RH  089%=      5-min Rain = 0
KDO2 072256Z 35009KT 05/03 A3037 RMK A01 T00470029  RH  088%=      5-min Rain = 0
KDO2 072257Z 35011KT 05/03 A3037 RMK A01 T00470030  RH  089%=      5-min Rain = 0
KDO2 072258Z 35013KT 05/03 A3037 RMK A01 T00470029  RH  088%=      5-min Rain = 0
KDO2 072259Z 34014KT 05/03 A3037 RMK A01 T00460027  RH  087%=      5-min Rain = 0
KDO2 072300Z 34011KT 05/03 A3037 RMK A01 T00460026  RH  087%=      5-min Rain = 0
KDO2 072301Z 35011KT 05/03 A3038 RMK A01 T00450026  RH  087%=      5-min Rain = 0
KDO2 072302Z 35010KT 05/03 A3038 RMK A01 T00450026  RH  087%=      5-min Rain = 0
KDO2 072303Z 36009KT 05/03 A3038 RMK A01 T00450025  RH  087%=      5-min Rain = 0
KDO2 072304Z 36011KT 05/03 A3038 RMK A01 T00450025  RH  087%=      5-min Rain = 0
KDO2 072305Z 35010KT 05/02 A3038 RMK A01 T00450024  RH  087%=      5-min Rain = 0
KDO2 072306Z 36010KT 04/02 A3038 RMK A01 T00440024  RH  087%=      5-min Rain = 0
KDO2 072307Z 36013KT 04/02 A3038 RMK A01 T00440024  RH  087%=      5-min Rain = 0
KDO2 072308Z 36012KT 04/02 A3038 RMK A01 T00440023  RH  086%=      5-min Rain = 0
KDO2 072309Z 35010KT 04/02 A3038 RMK A01 T00440024  RH  087%=      5-min Rain = 0
KDO2 072310Z 36011KT 04/02 A3038 RMK A01 T00440024  RH  087%=      5-min Rain = 0
KDO2 072311Z 35012KT 04/02 A3038 RMK A01 T00440024  RH  087%=      5-min Rain = 0
KDO2 072312Z 35011KT 04/02 A3038 RMK A01 T00440023  RH  086%=      5-min Rain = 0
KDO2 072313Z 35011KT 04/02 A3038 RMK A01 T00440023  RH  087%=      5-min Rain = 0
KDO2 072314Z 34011KT 04/02 A3038 RMK A01 T00440024  RH  087%=      5-min Rain = 0
KDO2 072315Z 35009KT 04/03 A3038 RMK A01 T00440025  RH  087%=      5-min Rain = 0
KDO2 072316Z 35009KT 04/03 A3038 RMK A01 T00440025  RH  087%=      5-min Rain = 0
KDO2 072317Z 35011KT 04/03 A3038 RMK A01 T00440025  RH  087%=      5-min Rain = 0
KDO2 072318Z 35010KT 04/02 A3038 RMK A01 T00440024  RH  087%=      5-min Rain = 0
KDO2 072319Z 34012KT 04/03 A3038 RMK A01 T00440025  RH  087%=      5-min Rain = 0
KDO2 072320Z 35010KT 04/03 A3038 RMK A01 T00440025  RH  087%=      5-min Rain = 0
KDO2 072321Z 36012KT 04/02 A3038 RMK A01 T00440024  RH  087%=      5-min Rain = 0
KDO2 072322Z 35011KT 04/02 A3038 RMK A01 T00440024  RH  087%=      5-min Rain = 0
KDO2 072323Z 34009KT 04/03 A3038 RMK A01 T00440025  RH  087%=      5-min Rain = 0
KDO2 072324Z 35009KT 04/03 A3038 RMK A01 T00440026  RH  088%=      5-min Rain = 0
KDO2 072325Z 36010KT 04/03 A3038 RMK A01 T00440026  RH  088%=      5-min Rain = 0
KDO2 072326Z 35010KT 04/03 A3038 RMK A01 T00440025  RH  088%=      5-min Rain = 0
KDO2 072327Z 35012KT 04/03 A3038 RMK A01 T00440025  RH  087%=      5-min Rain = 0
KDO2 072328Z 35012KT 04/02 A3038 RMK A01 T00430024  RH  087%=      5-min Rain = 0
KDO2 072329Z 35012KT 04/02 A3038 RMK A01 T00430024  RH  087%=      5-min Rain = 0
KDO2 072330Z 35008KT 04/02 A3038 RMK A01 T00440024  RH  087%=      5-min Rain = 0
KDO2 072331Z 35008KT 04/03 A3038 RMK A01 T00430025  RH  088%=      5-min Rain = 0
KDO2 072332Z 35008KT 04/03 A3038 RMK A01 T00430026  RH  088%=      5-min Rain = 0
KDO2 072333Z 34009KT 04/03 A3038 RMK A01 T00440026  RH  089%=      5-min Rain = 0
KDO2 072334Z 36010G15KT 04/03 A3038 RMK A01 T00430026  RH  089%=      5-min Rain = 0
KDO2 072335Z 35011KT 04/03 A3038 RMK A01 T00430025  RH  088%=      5-min Rain = 0
KDO2 072336Z 35010KT 04/03 A3038 RMK A01 T00430025  RH  088%=      5-min Rain = 0
KDO2 072337Z 36009KT 04/03 A3038 RMK A01 T00430026  RH  089%=      5-min Rain = 0
KDO2 072338Z 36008KT 04/03 A3038 RMK A01 T00430027  RH  089%=      5-min Rain = 0
KDO2 072339Z 36009KT 04/03 A3038 RMK A01 T00430027  RH  089%=      5-min Rain = 0
KDO2 072340Z 36012KT 04/03 A3038 RMK A01 T00430027  RH  089%=      5-min Rain = 0
KDO2 072341Z 00013KT 04/02 A3038 RMK A01 T00420024  RH  088%=      5-min Rain = 0
KDO2 072342Z 35013KT 04/02 A3038 RMK A01 T00410023  RH  088%=      5-min Rain = 0
KDO2 072343Z 36012KT 04/02 A3038 RMK A01 T00410023  RH  088%=      5-min Rain = 0
KDO2 072344Z 00014KT 04/02 A3038 RMK A01 T00410023  RH  088%=      5-min Rain = 0
KDO2 072345Z 00011KT 04/02 A3038 RMK A01 T00400022  RH  088%=      5-min Rain = 0
KDO2 072346Z 01012KT 04/02 A3038 RMK A01 T00400023  RH  088%=      5-min Rain = 0
KDO2 072347Z 01010KT 04/02 A3038 RMK A01 T00400022  RH  088%=      5-min Rain = 0
KDO2 072348Z 01011KT 04/02 A3038 RMK A01 T00400023  RH  089%=      5-min Rain = 0
KDO2 072349Z 01011KT 04/02 A3038 RMK A01 T00400023  RH  089%=      5-min Rain = 0
KDO2 072350Z 01010KT 04/02 A3038 RMK A01 T00400023  RH  089%=      5-min Rain = 0
KDO2 072351Z 36012KT 04/02 A3038 RMK A01 T00400023  RH  089%=      5-min Rain = 0
KDO2 072352Z 00011KT 04/02 A3037 RMK A01 T00390022  RH  089%=      5-min Rain = 0
KDO2 072353Z 01010KT 04/02 A3038 RMK A01 T00390022  RH  089%=      5-min Rain = 0
KDO2 072354Z 01011KT 04/02 A3038 RMK A01 T00390022  RH  089%=      5-min Rain = 0
KDO2 072355Z 35012KT 04/02 A3038 RMK A01 T00390022  RH  088%=      5-min Rain = 0
KDO2 072356Z 35012KT 04/02 A3038 RMK A01 T00390021  RH  088%=      5-min Rain = 0
KDO2 072357Z 35011KT 04/02 A3038 RMK A01 T00390021  RH  088%=      5-min Rain = 0
KDO2 072358Z 36011KT 04/02 A3038 RMK A01 T00390021  RH  088%=      5-min Rain = 0
KDO2 072359Z 35012KT 04/02 A3038 RMK A01 T00390021  RH  088%=      5-min Rain = 0
KDO2 080000Z 35012KT 04/02 A3038 RMK A01 T00390021  RH  088%=      5-min Rain = 0
KDO2 080001Z 34012KT 04/02 A3039 RMK A01 T00390021  RH  088%=      5-min Rain = 0
KDO2 080002Z 34010KT 04/02 A3039 RMK A01 T00380020  RH  088%=      5-min Rain = 0
KDO2 080003Z 34011KT 04/02 A3039 RMK A01 T00380021  RH  088%=      5-min Rain = 0
KDO2 080004Z 35011KT 04/02 A3039 RMK A01 T00380021  RH  088%=      5-min Rain = 0
KDO2 080005Z 35012KT 04/02 A3039 RMK A01 T00380021  RH  088%=      5-min Rain = 0
KDO2 080006Z 35011KT 04/02 A3039 RMK A01 T00380021  RH  088%=      5-min Rain = 0
KDO2 080007Z 35010KT 04/02 A3039 RMK A01 T00380021  RH  088%=      5-min Rain = 0
KDO2 080008Z 35009KT 04/02 A3039 RMK A01 T00380021  RH  089%=      5-min Rain = 0
KDO2 080009Z 35008KT 04/02 A304 RMK A01 T00380022  RH  089%=      5-min Rain = 0
KDO2 080010Z 35009KT 04/02 A304 RMK A01 T00380022  RH  089%=      5-min Rain = 0
KDO2 080011Z 35008KT 04/02 A304 RMK A01 T00380022  RH  089%=      5-min Rain = 0
KDO2 080012Z 35011KT 04/02 A304 RMK A01 T00380021  RH  089%=      5-min Rain = 0
KDO2 080013Z 35008KT 04/02 A304 RMK A01 T00380021  RH  089%=      5-min Rain = 0
KDO2 080014Z 35008KT 04/02 A3041 RMK A01 T00380022  RH  089%=      5-min Rain = 0
KDO2 080015Z 34009KT 04/02 A3041 RMK A01 T00380022  RH  089%=      5-min Rain = 0
KDO2 080016Z 35008KT 04/02 A3041 RMK A01 T00380021  RH  089%=      5-min Rain = 0
KDO2 080017Z 34009KT 04/02 A3041 RMK A01 T00380021  RH  089%=      5-min Rain = 0
KDO2 080018Z 35010KT 04/02 A3041 RMK A01 T00380021  RH  089%=      5-min Rain = 0
KDO2 080019Z 34009KT 04/02 A304 RMK A01 T00380021  RH  089%=      5-min Rain = 0
KDO2 080020Z 34009KT 04/02 A304 RMK A01 T00380021  RH  089%=      5-min Rain = 0
KDO2 080021Z 35007KT 04/02 A304 RMK A01 T00380021  RH  089%=      5-min Rain = 0
KDO2 080022Z 35007KT 04/02 A304 RMK A01 T00380022  RH  089%=      5-min Rain = 0
KDO2 080023Z 35007KT 04/02 A3041 RMK A01 T00380022  RH  089%=      5-min Rain = 0
KDO2 080024Z 36010KT 04/02 A3041 RMK A01 T00380022  RH  089%=      5-min Rain = 0
KDO2 080025Z 35009KT 04/02 A3041 RMK A01 T00380021  RH  089%=      5-min Rain = 0
KDO2 080026Z 35011KT 04/02 A3041 RMK A01 T00380021  RH  089%=      5-min Rain = 0
KDO2 080027Z 35010KT 04/02 A3041 RMK A01 T00380020  RH  088%=      5-min Rain = 0
KDO2 080028Z 35010KT 04/02 A3041 RMK A01 T00380020  RH  088%=      5-min Rain = 0
KDO2 080029Z 36009KT 04/02 A3041 RMK A01 T00380020  RH  088%=      5-min Rain = 0
KDO2 080030Z 35009KT 04/02 A3041 RMK A01 T00380021  RH  089%=      5-min Rain = 0
KDO2 080031Z 35008KT 04/02 A3041 RMK A01 T00380020  RH  089%=      5-min Rain = 0
KDO2 080032Z 35008KT 04/02 A3041 RMK A01 T00380021  RH  089%=      5-min Rain = 0
KDO2 080033Z 35007KT 04/02 A3041 RMK A01 T00380022  RH  089%=      5-min Rain = 0
KDO2 080034Z 35009KT 04/02 A3041 RMK A01 T00380021  RH  089%=      5-min Rain = 0
KDO2 080035Z 36009KT 04/02 A304 RMK A01 T00380021  RH  089%=      5-min Rain = 0
KDO2 080036Z 00010KT 04/02 A304 RMK A01 T00380021  RH  088%=      5-min Rain = 0
KDO2 080037Z 36011KT 04/02 A304 RMK A01 T00380020  RH  088%=      5-min Rain = 0
KDO2 080038Z 01009KT 04/02 A304 RMK A01 T00370019  RH  088%=      5-min Rain = 0
KDO2 080039Z 00009KT 04/02 A304 RMK A01 T00370021  RH  089%=      5-min Rain = 0
KDO2 080040Z 36010KT 04/02 A3041 RMK A01 T00370021  RH  089%=      5-min Rain = 0
KDO2 080041Z 35011KT 04/02 A3041 RMK A01 T00370021  RH  089%=      5-min Rain = 0
KDO2 080042Z 35010KT 04/02 A3041 RMK A01 T00370021  RH  089%=      5-min Rain = 0
KDO2 080043Z 35010KT 04/02 A3041 RMK A01 T00380021  RH  089%=      5-min Rain = 0
KDO2 080044Z 35008KT 04/02 A3041 RMK A01 T00370020  RH  089%=      5-min Rain = 0
KDO2 080045Z 35011KT 04/02 A3041 RMK A01 T00370020  RH  089%=      5-min Rain = 0
KDO2 080046Z 35009KT 04/02 A3041 RMK A01 T00370020  RH  089%=      5-min Rain = 0
KDO2 080047Z 00011KT 04/02 A304 RMK A01 T00370021  RH  089%=      5-min Rain = 0
KDO2 080048Z 00011KT 04/02 A304 RMK A01 T00370021  RH  089%=      5-min Rain = 0
KDO2 080049Z 36010KT 04/02 A304 RMK A01 T00370020  RH  089%=      5-min Rain = 0
KDO2 080050Z 36009KT 04/02 A304 RMK A01 T00360020  RH  089%=      5-min Rain = 0
KDO2 080051Z 36008KT 04/02 A304 RMK A01 T00370021  RH  090%=      5-min Rain = 0
KDO2 080052Z 36007KT 04/02 A304 RMK A01 T00370022  RH  090%=      5-min Rain = 0
KDO2 080053Z 36009KT 04/02 A304 RMK A01 T00370022  RH  090%=      5-min Rain = 0
KDO2 080054Z 36009KT 04/02 A304 RMK A01 T00370022  RH  090%=      5-min Rain = 0
KDO2 080055Z 00009KT 04/02 A304 RMK A01 T00370021  RH  090%=      5-min Rain = 0
KDO2 080056Z 35009KT 04/02 A304 RMK A01 T00370021  RH  090%=      5-min Rain = 0
KDO2 080057Z 35009KT 04/02 A304 RMK A01 T00360021  RH  090%=      5-min Rain = 0
KDO2 080058Z 35009KT 04/02 A3041 RMK A01 T00360021  RH  090%=      5-min Rain = 0
KDO2 080059Z 35010KT 04/02 A3041 RMK A01 T00360021  RH  090%=      5-min Rain = 0
KDO2 080100Z 35011KT 04/02 A3041 RMK A01 T00360021  RH  090%=      5-min Rain = 0
KDO2 080101Z 35011KT 04/02 A3041 RMK A01 T00360020  RH  089%=      5-min Rain = 0
KDO2 080102Z 35012KT 04/02 A3041 RMK A01 T00360020  RH  089%=      5-min Rain = 0
KDO2 080103Z 35011KT 04/02 A3041 RMK A01 T00360020  RH  089%=      5-min Rain = 0
KDO2 080104Z 35012KT 04/02 A304 RMK A01 T00360020  RH  089%=      5-min Rain = 0
KDO2 080105Z 35011KT 04/02 A304 RMK A01 T00350019  RH  089%=      5-min Rain = 0
KDO2 080106Z 35012KT 04/02 A304 RMK A01 T00350019  RH  089%=      5-min Rain = 0
KDO2 080107Z 35010KT 04/02 A304 RMK A01 T00350019  RH  089%=      5-min Rain = 0
KDO2 080108Z 00011KT 04/02 A3039 RMK A01 T00350019  RH  089%=      5-min Rain = 0
KDO2 080109Z 00012KT 04/02 A3039 RMK A01 T00350019  RH  089%=      5-min Rain = 0
KDO2 080110Z 35012KT 04/02 A3039 RMK A01 T00350019  RH  089%=      5-min Rain = 0
KDO2 080111Z 00010KT 04/02 A3039 RMK A01 T00350018  RH  089%=      5-min Rain = 0
KDO2 080112Z 00011KT 04/02 A3039 RMK A01 T00350019  RH  089%=      5-min Rain = 0
KDO2 080113Z 36009KT 04/02 A304 RMK A01 T00350019  RH  089%=      5-min Rain = 0
KDO2 080114Z 36008KT 04/02 A304 RMK A01 T00350019  RH  089%=      5-min Rain = 0
KDO2 080115Z 35011KT 04/02 A304 RMK A01 T00350020  RH  090%=      5-min Rain = 0
KDO2 080116Z 36012KT 04/02 A304 RMK A01 T00350019  RH  089%=      5-min Rain = 0
KDO2 080117Z 36011KT 04/02 A304 RMK A01 T00350018  RH  089%=      5-min Rain = 0
KDO2 080118Z 00010KT 04/02 A304 RMK A01 T00350018  RH  089%=      5-min Rain = 0
KDO2 080119Z 00011KT 04/02 A3041 RMK A01 T00350018  RH  089%=      5-min Rain = 0
KDO2 080120Z 35011KT 04/02 A3041 RMK A01 T00350018  RH  089%=      5-min Rain = 0
KDO2 080121Z 34010KT 04/02 A3041 RMK A01 T00350019  RH  089%=      5-min Rain = 0
KDO2 080122Z 34008KT 04/02 A3041 RMK A01 T00350019  RH  089%=      5-min Rain = 0
KDO2 080123Z 34010G15KT 04/02 A3041 RMK A01 T00350019  RH  089%=      5-min Rain = 0
KDO2 080124Z 34011KT 04/02 A3041 RMK A01 T00350019  RH  089%=      5-min Rain = 0
KDO2 080125Z 34011KT 04/02 A3042 RMK A01 T00350018  RH  089%=      5-min Rain = 0
KDO2 080126Z 35010KT 04/02 A3042 RMK A01 T00350018  RH  089%=      5-min Rain = 0
KDO2 080127Z 35009KT 04/02 A3042 RMK A01 T00350018  RH  089%=      5-min Rain = 0
KDO2 080128Z 34009KT 04/02 A3042 RMK A01 T00350018  RH  089%=      5-min Rain = 0
KDO2 080129Z 35011KT 04/02 A3042 RMK A01 T00350018  RH  089%=      5-min Rain = 0
KDO2 080130Z 36008KT 04/02 A3042 RMK A01 T00350018  RH  089%=      5-min Rain = 0
KDO2 080131Z 36007KT 04/02 A3042 RMK A01 T00350019  RH  089%=      5-min Rain = 0
KDO2 080132Z 35007KT 04/02 A3042 RMK A01 T00350019  RH  090%=      5-min Rain = 0
KDO2 080133Z 36011KT 04/02 A3042 RMK A01 T00350020  RH  090%=      5-min Rain = 0
KDO2 080134Z 35012KT 04/02 A3042 RMK A01 T00350017  RH  088%=      5-min Rain = 0
KDO2 080135Z 36010KT 03/02 A3042 RMK A01 T00340016  RH  088%=      5-min Rain = 0
KDO2 080136Z 35009KT 03/02 A3042 RMK A01 T00340016  RH  088%=      5-min Rain = 0
KDO2 080137Z 34009KT 03/02 A3042 RMK A01 T00340017  RH  089%=      5-min Rain = 0
KDO2 080138Z 35010KT 03/02 A3042 RMK A01 T00340016  RH  088%=      5-min Rain = 0
KDO2 080139Z 35010KT 03/02 A3042 RMK A01 T00340016  RH  088%=      5-min Rain = 0
KDO2 080140Z 36010KT 03/02 A3042 RMK A01 T00340016  RH  088%=      5-min Rain = 0
KDO2 080141Z 36010KT 03/02 A3042 RMK A01 T00330016  RH  089%=      5-min Rain = 0
KDO2 080142Z 36010KT 03/02 A3042 RMK A01 T00330017  RH  089%=      5-min Rain = 0
KDO2 080143Z 00011KT 03/02 A3042 RMK A01 T00330017  RH  089%=      5-min Rain = 0
KDO2 080144Z 01009KT 03/02 A3042 RMK A01 T00330017  RH  089%=      5-min Rain = 0
KDO2 080145Z 01011KT 03/02 A3042 RMK A01 T00330017  RH  089%=      5-min Rain = 0
KDO2 080146Z 35008KT 03/02 A3042 RMK A01 T00330017  RH  089%=      5-min Rain = 0
KDO2 080147Z 00006KT 03/02 A3042 RMK A01 T00330017  RH  089%=      5-min Rain = 0
KDO2 080148Z 01009KT 03/02 A3042 RMK A01 T00340018  RH  090%=      5-min Rain = 0
KDO2 080149Z 36008KT 03/02 A3042 RMK A01 T00340018  RH  090%=      5-min Rain = 0
KDO2 080150Z 35008KT 03/02 A3042 RMK A01 T00340019  RH  090%=      5-min Rain = 0
KDO2 080151Z 35008KT 03/02 A3042 RMK A01 T00340019  RH  090%=      5-min Rain = 0
KDO2 080152Z 35007KT 03/02 A3042 RMK A01 T00340019  RH  090%=      5-min Rain = 0
KDO2 080153Z 35008KT 03/02 A3042 RMK A01 T00340019  RH  090%=      5-min Rain = 0
KDO2 080154Z 35009KT 03/02 A3042 RMK A01 T00340019  RH  090%=      5-min Rain = 0
KDO2 080155Z 35011KT 03/02 A3042 RMK A01 T00340018  RH  089%=      5-min Rain = 0
KDO2 080156Z 34010KT 03/02 A3042 RMK A01 T00340017  RH  089%=      5-min Rain = 0
KDO2 080157Z 36009KT 03/02 A3042 RMK A01 T00330017  RH  089%=      5-min Rain = 0
KDO2 080158Z 35009KT 03/02 A3042 RMK A01 T00330018  RH  090%=      5-min Rain = 0
KDO2 080159Z 36008KT 03/02 A3042 RMK A01 T00330018  RH  090%=      5-min Rain = 0
KDO2 080200Z 35010KT 03/02 A3042 RMK A01 T00340019  RH  090%=      5-min Rain = 0
KDO2 080201Z 36011KT 03/02 A3042 RMK A01 T00330018  RH  090%=      5-min Rain = 0
KDO2 080202Z 36011KT 03/02 A3042 RMK A01 T00330018  RH  090%=      5-min Rain = 0
KDO2 080203Z 36012KT 03/02 A3041 RMK A01 T00330018  RH  089%=      5-min Rain = 0
KDO2 080204Z 35011KT 03/02 A3041 RMK A01 T00330018  RH  089%=      5-min Rain = 0
KDO2 080205Z 35009KT 03/02 A3041 RMK A01 T00330017  RH  089%=      5-min Rain = 0
KDO2 080206Z 35009KT 03/02 A3042 RMK A01 T00330017  RH  090%=      5-min Rain = 0
KDO2 080207Z 35008KT 03/02 A3042 RMK A01 T00330018  RH  090%=      5-min Rain = 0
KDO2 080208Z 34008KT 03/02 A3042 RMK A01 T00330018  RH  090%=      5-min Rain = 0
KDO2 080209Z 35007KT 03/02 A3042 RMK A01 T00330018  RH  090%=      5-min Rain = 0
KDO2 080210Z 35008KT 03/02 A3042 RMK A01 T00330018  RH  090%=      5-min Rain = 0
KDO2 080211Z 35010KT 03/02 A3042 RMK A01 T00330017  RH  090%=      5-min Rain = 0
KDO2 080212Z 35008KT 03/02 A3042 RMK A01 T00330018  RH  090%=      5-min Rain = 0
KDO2 080213Z 00008KT 03/02 A3042 RMK A01 T00330018  RH  090%=      5-min Rain = 0
KDO2 080214Z 35010KT 03/02 A3042 RMK A01 T00330017  RH  090%=      5-min Rain = 0
KDO2 080215Z 35011KT 03/02 A3042 RMK A01 T00330016  RH  089%=      5-min Rain = 0
KDO2 080216Z 35009KT 03/02 A3042 RMK A01 T00330016  RH  088%=      5-min Rain = 0
KDO2 080217Z 35009KT 03/02 A3042 RMK A01 T00330016  RH  089%=      5-min Rain = 0
KDO2 080218Z 35010KT 03/02 A3043 RMK A01 T00330016  RH  089%=      5-min Rain = 0
KDO2 080219Z 36010KT 03/02 A3043 RMK A01 T00330015  RH  088%=      5-min Rain = 0
KDO2 080220Z 00012KT 03/02 A3043 RMK A01 T00330015  RH  088%=      5-min Rain = 0
KDO2 080221Z 36011KT 03/01 A3043 RMK A01 T00330014  RH  087%=      5-min Rain = 0
KDO2 080222Z 00010KT 03/01 A3043 RMK A01 T00330013  RH  087%=      5-min Rain = 0
KDO2 080223Z 36009KT 03/01 A3043 RMK A01 T00330014  RH  087%=      5-min Rain = 0
KDO2 080224Z 36010KT 03/01 A3043 RMK A01 T00330014  RH  087%=      5-min Rain = 0
KDO2 080225Z 36010KT 03/01 A3043 RMK A01 T00330013  RH  087%=      5-min Rain = 0
KDO2 080226Z 00008KT 03/01 A3043 RMK A01 T00330014  RH  087%=      5-min Rain = 0
KDO2 080227Z 01008KT 03/02 A3042 RMK A01 T00330015  RH  088%=      5-min Rain = 0
KDO2 080228Z 01009KT 03/01 A3042 RMK A01 T00330014  RH  088%=      5-min Rain = 0
KDO2 080229Z 01011KT 03/01 A3042 RMK A01 T00330014  RH  088%=      5-min Rain = 0
KDO2 080230Z 00008KT 03/01 A3042 RMK A01 T00330014  RH  088%=      5-min Rain = 0
KDO2 080231Z 00008KT 03/02 A3043 RMK A01 T00330015  RH  088%=      5-min Rain = 0
KDO2 080232Z 35008KT 03/02 A3043 RMK A01 T00330016  RH  088%=      5-min Rain = 0
KDO2 080233Z 35007KT 03/02 A3043 RMK A01 T00330015  RH  088%=      5-min Rain = 0
KDO2 080234Z 36008KT 03/02 A3043 RMK A01 T00330015  RH  088%=      5-min Rain = 0
KDO2 080235Z 00008KT 03/02 A3043 RMK A01 T00330015  RH  088%=      5-min Rain = 0
KDO2 080236Z 35008KT 03/02 A3043 RMK A01 T00330015  RH  088%=      5-min Rain = 0
KDO2 080237Z 36009KT 03/02 A3044 RMK A01 T00330015  RH  088%=      5-min Rain = 0
KDO2 080238Z 35010KT 03/02 A3043 RMK A01 T00330015  RH  088%=      5-min Rain = 0
KDO2 080239Z 35009KT 03/02 A3043 RMK A01 T00330015  RH  088%=      5-min Rain = 0
KDO2 080240Z 35008KT 03/02 A3043 RMK A01 T00330015  RH  088%=      5-min Rain = 0
KDO2 080241Z 36007KT 03/02 A3043 RMK A01 T00330016  RH  088%=      5-min Rain = 0
KDO2 080242Z 35006KT 03/02 A3043 RMK A01 T00330016  RH  089%=      5-min Rain = 0
KDO2 080243Z 34006KT 03/02 A3043 RMK A01 T00330017  RH  089%=      5-min Rain = 0
KDO2 080244Z 35008KT 03/02 A3043 RMK A01 T00330017  RH  089%=      5-min Rain = 0
KDO2 080245Z 35009KT 03/02 A3043 RMK A01 T00330016  RH  089%=      5-min Rain = 0
KDO2 080246Z 36009KT 03/02 A3043 RMK A01 T00330016  RH  089%=      5-min Rain = 0
KDO2 080247Z 35009KT 03/02 A3043 RMK A01 T00330016  RH  088%=      5-min Rain = 0
KDO2 080248Z 35008KT 03/02 A3043 RMK A01 T00330016  RH  088%=      5-min Rain = 0
KDO2 080249Z 36008KT 03/02 A3042 RMK A01 T00330016  RH  088%=      5-min Rain = 0
KDO2 080250Z 36008KT 03/02 A3042 RMK A01 T00330016  RH  088%=      5-min Rain = 0
KDO2 080251Z 00008KT 03/02 A3042 RMK A01 T00340017  RH  089%=      5-min Rain = 0
KDO2 080252Z 00008KT 03/02 A3042 RMK A01 T00330017  RH  089%=      5-min Rain = 0
KDO2 080253Z 00008KT 03/02 A3042 RMK A01 T00340017  RH  089%=      5-min Rain = 0
KDO2 080254Z 00008KT 03/02 A3042 RMK A01 T00340017  RH  089%=      5-min Rain = 0
KDO2 080255Z 35009KT 03/02 A3043 RMK A01 T00340017  RH  089%=      5-min Rain = 0
KDO2 080256Z 35009KT 03/02 A3043 RMK A01 T00340017  RH  089%=      5-min Rain = 0
KDO2 080257Z 36009KT 03/02 A3043 RMK A01 T00340017  RH  089%=      5-min Rain = 0
KDO2 080258Z 35008KT 03/02 A3044 RMK A01 T00340017  RH  089%=      5-min Rain = 0
KDO2 080259Z 35007KT 03/02 A3044 RMK A01 T00340017  RH  089%=      5-min Rain = 0
KDO2 080300Z 36007KT 03/02 A3044 RMK A01 T00340018  RH  089%=      5-min Rain = 0
KDO2 080301Z 35008KT 04/02 A3044 RMK A01 T00350018  RH  089%=      5-min Rain = 0
KDO2 080302Z 35005KT 03/02 A3043 RMK A01 T00340018  RH  089%=      5-min Rain = 0
KDO2 080303Z 00006KT 03/02 A3043 RMK A01 T00340018  RH  089%=      5-min Rain = 0
KDO2 080304Z 00008KT 03/02 A3043 RMK A01 T00340018  RH  089%=      5-min Rain = 0
KDO2 080305Z 00008KT 03/02 A3043 RMK A01 T00340018  RH  089%=      5-min Rain = 0
KDO2 080306Z 00007KT 03/02 A3043 RMK A01 T00340017  RH  089%=      5-min Rain = 0
KDO2 080307Z 35006KT 03/02 A3043 RMK A01 T00340018  RH  089%=      5-min Rain = 0
KDO2 080308Z 00006KT 03/02 A3043 RMK A01 T00340019  RH  089%=      5-min Rain = 0
KDO2 080309Z 36007KT 03/02 A3043 RMK A01 T00340019  RH  090%=      5-min Rain = 0
KDO2 080310Z 36008KT 03/02 A3043 RMK A01 T00340018  RH  089%=      5-min Rain = 0
KDO2 080311Z 35007KT 03/02 A3043 RMK A01 T00340017  RH  089%=      5-min Rain = 0
KDO2 080312Z 00006KT 03/02 A3044 RMK A01 T00340018  RH  089%=      5-min Rain = 0
KDO2 080313Z 01005KT 03/02 A3044 RMK A01 T00340018  RH  089%=      5-min Rain = 0
KDO2 080314Z 00006KT 03/02 A3043 RMK A01 T00340019  RH  089%=      5-min Rain = 0
KDO2 080315Z 00006KT 03/02 A3043 RMK A01 T00340018  RH  089%=      5-min Rain = 0
KDO2 080316Z 01008KT 03/02 A3043 RMK A01 T00340019  RH  089%=      5-min Rain = 0
KDO2 080317Z 01007KT 03/02 A3043 RMK A01 T00340018  RH  089%=      5-min Rain = 0
KDO2 080318Z 01005KT 03/02 A3043 RMK A01 T00340019  RH  090%=      5-min Rain = 0
KDO2 080319Z 00006KT 04/02 A3043 RMK A01 T00350020  RH  090%=      5-min Rain = 0
KDO2 080320Z 00006KT 04/02 A3043 RMK A01 T00350021  RH  091%=      5-min Rain = 0
KDO2 080321Z 00006KT 04/02 A3043 RMK A01 T00350021  RH  091%=      5-min Rain = 0
KDO2 080322Z 01006KT 04/02 A3044 RMK A01 T00350021  RH  091%=      5-min Rain = 0
KDO2 080323Z 36006KT 04/02 A3044 RMK A01 T00350021  RH  091%=      5-min Rain = 0
KDO2 080324Z 36006KT 04/02 A3044 RMK A01 T00350022  RH  092%=      5-min Rain = 0
KDO2 080325Z 35008KT 04/02 A3044 RMK A01 T00350022  RH  092%=      5-min Rain = 0
KDO2 080326Z 35006KT 03/02 A3044 RMK A01 T00340021  RH  091%=      5-min Rain = 0
KDO2 080327Z 01004KT 03/02 A3043 RMK A01 T00340021  RH  092%=      5-min Rain = 0
KDO2 080328Z 00006KT 03/02 A3043 RMK A01 T00340023  RH  092%=      5-min Rain = 0
KDO2 080329Z 01007KT 03/02 A3043 RMK A01 T00340022  RH  092%=      5-min Rain = 0
KDO2 080330Z 01005KT 03/02 A3043 RMK A01 T00340022  RH  092%=      5-min Rain = 0
KDO2 080331Z 00003KT 03/02 A3043 RMK A01 T00340022  RH  092%=      5-min Rain = 0
KDO2 080332Z 35005KT 03/02 A3043 RMK A01 T00340023  RH  092%=      5-min Rain = 0
KDO2 080333Z 36004KT 03/02 A3043 RMK A01 T00340023  RH  092%=      5-min Rain = 0
KDO2 080334Z 00005KT 03/02 A3043 RMK A01 T00340023  RH  092%=      5-min Rain = 0
KDO2 080335Z 00005KT 03/02 A3043 RMK A01 T00340022  RH  092%=      5-min Rain = 0
KDO2 080336Z 36007KT 03/02 A3043 RMK A01 T00340022  RH  092%=      5-min Rain = 0
KDO2 080337Z 01007KT 03/02 A3043 RMK A01 T00340022  RH  092%=      5-min Rain = 0
KDO2 080338Z 01007KT 03/02 A3043 RMK A01 T00340022  RH  092%=      5-min Rain = 0
KDO2 080339Z 00007KT 03/02 A3043 RMK A01 T00340022  RH  092%=      5-min Rain = 0
KDO2 080340Z 35007KT 03/02 A3043 RMK A01 T00340022  RH  092%=      5-min Rain = 0
KDO2 080341Z 35006KT 03/02 A3043 RMK A01 T00340022  RH  092%=      5-min Rain = 0
KDO2 080342Z 36005KT 03/02 A3043 RMK A01 T00340022  RH  092%=      5-min Rain = 0
KDO2 080343Z 35005KT 03/02 A3043 RMK A01 T00340023  RH  092%=      5-min Rain = 0
KDO2 080344Z 35007KT 03/02 A3044 RMK A01 T00340023  RH  092%=      5-min Rain = 0
KDO2 080345Z 34008KT 03/02 A3044 RMK A01 T00340023  RH  092%=      5-min Rain = 0
KDO2 080346Z 34007KT 03/02 A3044 RMK A01 T00340023  RH  092%=      5-min Rain = 0
KDO2 080347Z 34006KT 03/02 A3044 RMK A01 T00340023  RH  092%=      5-min Rain = 0
KDO2 080348Z 34008KT 03/02 A3044 RMK A01 T00340023  RH  092%=      5-min Rain = 0
KDO2 080349Z 34008KT 03/02 A3044 RMK A01 T00340022  RH  092%=      5-min Rain = 0
KDO2 080350Z 35009KT 03/02 A3044 RMK A01 T00340023  RH  092%=      5-min Rain = 0
KDO2 080351Z 34010KT 03/02 A3044 RMK A01 T00340023  RH  092%=      5-min Rain = 0
KDO2 080352Z 34010KT 03/02 A3045 RMK A01 T00340023  RH  092%=      5-min Rain = 0
KDO2 080353Z 33010KT 03/02 A3045 RMK A01 T00340024  RH  093%=      5-min Rain = 0
KDO2 080354Z 34008KT 03/02 A3044 RMK A01 T00340023  RH  093%=      5-min Rain = 0
KDO2 080355Z 33009KT 03/02 A3044 RMK A01 T00340023  RH  093%=      5-min Rain = 0
KDO2 080356Z 34012KT 03/02 A3044 RMK A01 T00340023  RH  093%=      5-min Rain = 0
KDO2 080357Z 34010KT 03/02 A3044 RMK A01 T00330023  RH  093%=      5-min Rain = 0
KDO2 080358Z 34008KT 03/02 A3044 RMK A01 T00330023  RH  093%=      5-min Rain = 0
KDO2 080359Z 34010KT 03/02 A3044 RMK A01 T00330023  RH  093%=      5-min Rain = 0
KDO2 080400Z 34010KT 03/02 A3044 RMK A01 T00330023  RH  093%=      5-min Rain = 0
KDO2 080401Z 34008KT 03/02 A3044 RMK A01 T00330023  RH  093%=      5-min Rain = 0
KDO2 080402Z 34010KT 03/02 A3044 RMK A01 T00330023  RH  093%=      5-min Rain = 0
KDO2 080403Z 34008KT 03/02 A3044 RMK A01 T00330023  RH  093%=      5-min Rain = 0
KDO2 080404Z 36010KT 03/02 A3044 RMK A01 T00330023  RH  093%=      5-min Rain = 0
KDO2 080405Z 35009KT 03/02 A3044 RMK A01 T00330023  RH  093%=      5-min Rain = 0
KDO2 080406Z 36010KT 03/02 A3044 RMK A01 T00330023  RH  093%=      5-min Rain = 0
KDO2 080407Z 36010KT 03/02 A3044 RMK A01 T00320022  RH  093%=      5-min Rain = 0
KDO2 080408Z 01009KT 03/02 A3044 RMK A01 T00320022  RH  093%=      5-min Rain = 0
KDO2 080409Z 00010KT 03/02 A3044 RMK A01 T00320023  RH  093%=      5-min Rain = 0
KDO2 080410Z 00009KT 03/02 A3044 RMK A01 T00330023  RH  094%=      5-min Rain = 0
KDO2 080411Z 00007KT 03/02 A3044 RMK A01 T00320023  RH  093%=      5-min Rain = 0
KDO2 080412Z 36008KT 03/02 A3044 RMK A01 T00330023  RH  093%=      5-min Rain = 0
KDO2 080413Z 01007KT 03/02 A3044 RMK A01 T00320023  RH  093%=      5-min Rain = 0
KDO2 080414Z 01006KT 03/02 A3044 RMK A01 T00320023  RH  093%=      5-min Rain = 0
KDO2 080415Z 36008KT 03/02 A3044 RMK A01 T00320023  RH  094%=      5-min Rain = 0
KDO2 080416Z 36008KT 03/02 A3044 RMK A01 T00330023  RH  093%=      5-min Rain = 0
KDO2 080417Z 35008KT 03/02 A3044 RMK A01 T00320023  RH  093%=      5-min Rain = 0
KDO2 080418Z 36006KT 03/02 A3044 RMK A01 T00330023  RH  093%=      5-min Rain = 0
KDO2 080419Z 35005KT 03/02 A3044 RMK A01 T00330024  RH  094%=      5-min Rain = 0
KDO2 080420Z 35005KT 03/02 A3044 RMK A01 T00330024  RH  094%=      5-min Rain = 0
KDO2 080421Z 36006KT 03/02 A3044 RMK A01 T00330024  RH  094%=      5-min Rain = 0
KDO2 080422Z 35007KT 03/02 A3044 RMK A01 T00330024  RH  094%=      5-min Rain = 0
KDO2 080423Z 35008KT 03/02 A3044 RMK A01 T00330024  RH  093%=      5-min Rain = 0
KDO2 080424Z 35007KT 03/02 A3044 RMK A01 T00330023  RH  093%=      5-min Rain = 0
KDO2 080425Z 35006KT 03/02 A3044 RMK A01 T00330023  RH  093%=      5-min Rain = 0
KDO2 080426Z 35005KT 03/02 A3044 RMK A01 T00330023  RH  093%=      5-min Rain = 0
KDO2 080427Z 35005KT 03/02 A3044 RMK A01 T00330024  RH  094%=      5-min Rain = 0
KDO2 080428Z 35006KT 03/02 A3044 RMK A01 T00330024  RH  094%=      5-min Rain = 0
KDO2 080429Z 35005KT 03/02 A3044 RMK A01 T00340024  RH  094%=      5-min Rain = 0
KDO2 080430Z 34005KT 03/03 A3044 RMK A01 T00340025  RH  094%=      5-min Rain = 0
KDO2 080431Z 35006KT 03/02 A3044 RMK A01 T00340024  RH  094%=      5-min Rain = 0
KDO2 080432Z 34008KT 03/02 A3044 RMK A01 T00340024  RH  093%=      5-min Rain = 0
KDO2 080433Z 35008KT 03/02 A3044 RMK A01 T00340024  RH  093%=      5-min Rain = 0
KDO2 080434Z 35006KT 03/02 A3044 RMK A01 T00330023  RH  093%=      5-min Rain = 0
KDO2 080435Z 35009KT 03/02 A3044 RMK A01 T00330023  RH  093%=      5-min Rain = 0
KDO2 080436Z 35009KT 03/02 A3044 RMK A01 T00330023  RH  093%=      5-min Rain = 0
KDO2 080437Z 35009KT 03/02 A3044 RMK A01 T00330023  RH  093%=      5-min Rain = 0
KDO2 080438Z 34009KT 03/02 A3044 RMK A01 T00330023  RH  093%=      5-min Rain = 0
KDO2 080439Z 35008KT 03/02 A3044 RMK A01 T00330023  RH  093%=      5-min Rain = 0
KDO2 080440Z 34009KT 03/02 A3044 RMK A01 T00330023  RH  093%=      5-min Rain = 0
KDO2 080441Z 34007KT 03/02 A3045 RMK A01 T00330023  RH  093%=      5-min Rain = 0
KDO2 080442Z 34007KT 03/02 A3045 RMK A01 T00330023  RH  093%=      5-min Rain = 0
KDO2 080443Z 34009KT 03/02 A3045 RMK A01 T00330023  RH  093%=      5-min Rain = 0
KDO2 080444Z 34007KT 03/02 A3045 RMK A01 T00330023  RH  093%=      5-min Rain = 0
KDO2 080445Z 34008KT 03/02 A3045 RMK A01 T00330023  RH  093%=      5-min Rain = 0
KDO2 080446Z 34009KT 03/02 A3045 RMK A01 T00330024  RH  093%=      5-min Rain = 0
KDO2 080447Z 34008KT 03/02 A3045 RMK A01 T00330023  RH  093%=      5-min Rain = 0
KDO2 080448Z 34006KT 03/02 A3045 RMK A01 T00330023  RH  093%=      5-min Rain = 0
KDO2 080449Z 35007KT 03/02 A3045 RMK A01 T00330023  RH  094%=      5-min Rain = 0
KDO2 080450Z 35008KT 03/02 A3044 RMK A01 T00330024  RH  094%=      5-min Rain = 0
KDO2 080451Z 35007KT 03/02 A3044 RMK A01 T00330023  RH  093%=      5-min Rain = 0
KDO2 080452Z 34005KT 03/02 A3044 RMK A01 T00330023  RH  093%=      5-min Rain = 0
KDO2 080453Z 35006KT 03/02 A3044 RMK A01 T00330024  RH  094%=      5-min Rain = 0
KDO2 080454Z 35006KT 03/02 A3044 RMK A01 T00330024  RH  094%=      5-min Rain = 0
KDO2 080455Z 35007KT 03/02 A3044 RMK A01 T00330024  RH  094%=      5-min Rain = 0
KDO2 080456Z 34007KT 03/02 A3044 RMK A01 T00330024  RH  094%=      5-min Rain = 0
KDO2 080457Z 36007KT 03/02 A3044 RMK A01 T00330024  RH  094%=      5-min Rain = 0
KDO2 080458Z 00006KT 03/03 A3044 RMK A01 T00330025  RH  094%=      5-min Rain = 0
KDO2 080459Z 35005KT 03/03 A3044 RMK A01 T00330025  RH  094%=      5-min Rain = 0
KDO2 080500Z 35005KT 03/03 A3044 RMK A01 T00330025  RH  094%=      5-min Rain = 0
KDO2 080501Z 36005KT 03/03 A3044 RMK A01 T00330025  RH  094%=      5-min Rain = 0
KDO2 080502Z 35007KT 03/03 A3044 RMK A01 T00330025  RH  094%=      5-min Rain = 0
KDO2 080503Z 35007KT 03/03 A3044 RMK A01 T00330025  RH  094%=      5-min Rain = 0
KDO2 080504Z 36009KT 03/03 A3044 RMK A01 T00330025  RH  094%=      5-min Rain = 0
KDO2 080505Z 35010KT 03/03 A3044 RMK A01 T00330025  RH  094%=      5-min Rain = 0
KDO2 080506Z 36008KT 03/02 A3043 RMK A01 T00330023  RH  094%=      5-min Rain = 0
KDO2 080507Z 36008KT 03/02 A3043 RMK A01 T00320023  RH  094%=      5-min Rain = 0
KDO2 080508Z 00007KT 03/02 A3043 RMK A01 T00330023  RH  094%=      5-min Rain = 0
KDO2 080509Z 00008KT 03/02 A3043 RMK A01 T00320023  RH  094%=      5-min Rain = 0
KDO2 080510Z 35007KT 03/02 A3044 RMK A01 T00320023  RH  093%=      5-min Rain = 0
KDO2 080511Z 36006KT 03/02 A3044 RMK A01 T00320023  RH  094%=      5-min Rain = 0
KDO2 080512Z 35006KT 03/02 A3044 RMK A01 T00320023  RH  094%=      5-min Rain = 0
KDO2 080513Z 36009KT 03/02 A3044 RMK A01 T00320023  RH  094%=      5-min Rain = 0
KDO2 080514Z 35007KT 03/02 A3044 RMK A01 T00320023  RH  093%=      5-min Rain = 0
KDO2 080515Z 35008KT 03/02 A3044 RMK A01 T00330023  RH  094%=      5-min Rain = 0
KDO2 080516Z 35011KT 03/02 A3044 RMK A01 T00320023  RH  093%=      5-min Rain = 0
KDO2 080517Z 34010KT 03/02 A3044 RMK A01 T00320022  RH  093%=      5-min Rain = 0
KDO2 080518Z 36007KT 03/02 A3044 RMK A01 T00330022  RH  093%=      5-min Rain = 0
KDO2 080519Z 35008KT 03/02 A3044 RMK A01 T00320022  RH  093%=      5-min Rain = 0
KDO2 080520Z 35008KT 03/02 A3044 RMK A01 T00330023  RH  093%=      5-min Rain = 0
KDO2 080521Z 35008KT 03/02 A3044 RMK A01 T00330023  RH  093%=      5-min Rain = 0
KDO2 080522Z 35008KT 03/02 A3045 RMK A01 T00330023  RH  093%=      5-min Rain = 0
KDO2 080523Z 34008KT 03/02 A3045 RMK A01 T00330022  RH  093%=      5-min Rain = 0
KDO2 080524Z 36007KT 03/02 A3045 RMK A01 T00330022  RH  093%=      5-min Rain = 0
KDO2 080525Z 35007KT 03/02 A3044 RMK A01 T00330022  RH  093%=      5-min Rain = 0
KDO2 080526Z 35008KT 03/02 A3044 RMK A01 T00330022  RH  093%=      5-min Rain = 0
KDO2 080527Z 00008KT 03/02 A3044 RMK A01 T00330022  RH  093%=      5-min Rain = 0
KDO2 080528Z 36006KT 03/02 A3044 RMK A01 T00330022  RH  093%=      5-min Rain = 0
KDO2 080529Z 01007KT 03/02 A3044 RMK A01 T00330023  RH  093%=      5-min Rain = 0
KDO2 080530Z 01007KT 03/02 A3043 RMK A01 T00330023  RH  093%=      5-min Rain = 0
KDO2 080531Z 01008KT 03/02 A3043 RMK A01 T00340023  RH  093%=      5-min Rain = 0
KDO2 080532Z 01007KT 03/02 A3043 RMK A01 T00330023  RH  093%=      5-min Rain = 0
KDO2 080533Z 01007KT 03/02 A3043 RMK A01 T00330022  RH  093%=      5-min Rain = 0
KDO2 080534Z 00006KT 03/02 A3043 RMK A01 T00330023  RH  093%=      5-min Rain = 0
KDO2 080535Z 01006KT 03/02 A3043 RMK A01 T00330023  RH  093%=      5-min Rain = 0
KDO2 080536Z 00007KT 03/02 A3043 RMK A01 T00330023  RH  093%=      5-min Rain = 0
KDO2 080537Z 00006KT 03/02 A3044 RMK A01 T00330023  RH  093%=      5-min Rain = 0
KDO2 080538Z 00005KT 03/02 A3044 RMK A01 T00330023  RH  093%=      5-min Rain = 0
KDO2 080539Z 36005KT 03/02 A3043 RMK A01 T00330023  RH  093%=      5-min Rain = 0
KDO2 080540Z 36007KT 03/02 A3043 RMK A01 T00340023  RH  093%=      5-min Rain = 0
KDO2 080541Z 00007KT 03/02 A3043 RMK A01 T00340024  RH  093%=      5-min Rain = 0
KDO2 080542Z 36009KT 03/02 A3043 RMK A01 T00340024  RH  093%=      5-min Rain = 0
KDO2 080543Z 35008KT 03/02 A3043 RMK A01 T00340024  RH  093%=      5-min Rain = 0
KDO2 080544Z 36009KT 03/02 A3043 RMK A01 T00340024  RH  093%=      5-min Rain = 0
KDO2 080545Z 35009KT 03/02 A3044 RMK A01 T00340024  RH  093%=      5-min Rain = 0
KDO2 080546Z 35010KT 03/02 A3044 RMK A01 T00340024  RH  093%=      5-min Rain = 0
KDO2 080547Z 35009KT 03/02 A3044 RMK A01 T00340024  RH  093%=      5-min Rain = 0
KDO2 080548Z 35009KT 03/03 A3044 RMK A01 T00340025  RH  093%=      5-min Rain = 0
KDO2 080549Z 00009KT 03/03 A3044 RMK A01 T00340025  RH  094%=      5-min Rain = 0
KDO2 080550Z 35009KT 03/03 A3044 RMK A01 T00340025  RH  094%=      5-min Rain = 0
KDO2 080551Z 00009KT 03/03 A3043 RMK A01 T00340025  RH  094%=      5-min Rain = 0
KDO2 080552Z 36008KT 03/03 A3043 RMK A01 T00340025  RH  094%=      5-min Rain = 0
KDO2 080553Z 00006KT 03/03 A3043 RMK A01 T00340025  RH  094%=      5-min Rain = 0
KDO2 080554Z 00008KT 03/03 A3043 RMK A01 T00340025  RH  094%=      5-min Rain = 0
KDO2 080555Z 01008KT 03/03 A3043 RMK A01 T00340025  RH  094%=      5-min Rain = 0
KDO2 080556Z 01008KT 03/03 A3043 RMK A01 T00340025  RH  094%=      5-min Rain = 0
KDO2 080557Z 36008KT 03/03 A3043 RMK A01 T00340025  RH  094%=      5-min Rain = 0
KDO2 080558Z 35007KT 03/03 A3044 RMK A01 T00340026  RH  094%=      5-min Rain = 0
KDO2 080559Z 36005KT 03/03 A3044 RMK A01 T00340026  RH  094%=      5-min Rain = 0

Page generated in 0.071 seconds.